<?xml version="1.0" encoding="UTF-8" standalone="no" ?>
<gpx xmlns="http://www.topografix.com/GPX/1/1" xmlns:xsi="http://www.w3.org/2001/XMLSchema-instance" xsi:schemaLocation="http://www.topografix.com/GPX/1/1 http://www.topografix.com/GPX/1/1/gpx.xsd" version="1.1" creator="VisuGPX - https://www.visugpx.com">
  <metadata>
    <name>ASCR 2018_09 Marcheurs samedi</name>
    <desc><![CDATA[Circuit effectué le samedi par les marcheurs de l'ASCR lors du week end de l'association à Saint Leonard des Bois dans la Sarthe.
Départ du Gite de groupe de Vandoeuvre.]]></desc>
  </metadata>
  <trk>
    <name><![CDATA[20181017211411-Rilcn]]></name>
    <trkseg>
      <trkpt lat="48.35263" lon="-0.07606">
        <ele>59</ele>
        <time>2018-09-22T07:12:48Z</time>
      </trkpt>
      <trkpt lat="48.35262" lon="-0.07606">
        <ele>59</ele>
        <time>2018-09-22T07:12:49Z</time>
      </trkpt>
      <trkpt lat="48.3526" lon="-0.07607">
        <ele>59</ele>
        <time>2018-09-22T07:12:53Z</time>
      </trkpt>
      <trkpt lat="48.35258" lon="-0.07609">
        <ele>58</ele>
        <time>2018-09-22T07:13:06Z</time>
      </trkpt>
      <trkpt lat="48.35256" lon="-0.07609">
        <ele>57</ele>
        <time>2018-09-22T07:13:29Z</time>
      </trkpt>
      <trkpt lat="48.35256" lon="-0.07608">
        <ele>57</ele>
        <time>2018-09-22T07:14:29Z</time>
      </trkpt>
      <trkpt lat="48.35257" lon="-0.07608">
        <ele>57</ele>
        <time>2018-09-22T07:15:02Z</time>
      </trkpt>
      <trkpt lat="48.35258" lon="-0.07606">
        <ele>57</ele>
        <time>2018-09-22T07:15:39Z</time>
      </trkpt>
      <trkpt lat="48.35265" lon="-0.07606">
        <ele>57</ele>
        <time>2018-09-22T07:15:59Z</time>
      </trkpt>
      <trkpt lat="48.35265" lon="-0.07603">
        <ele>58</ele>
        <time>2018-09-22T07:16:05Z</time>
      </trkpt>
      <trkpt lat="48.35263" lon="-0.07602">
        <ele>58</ele>
        <time>2018-09-22T07:17:00Z</time>
      </trkpt>
      <trkpt lat="48.35262" lon="-0.07604">
        <ele>58</ele>
        <time>2018-09-22T07:17:03Z</time>
      </trkpt>
      <trkpt lat="48.35263" lon="-0.07605">
        <ele>57</ele>
        <time>2018-09-22T07:17:18Z</time>
      </trkpt>
      <trkpt lat="48.35265" lon="-0.07606">
        <ele>57</ele>
        <time>2018-09-22T07:17:26Z</time>
      </trkpt>
      <trkpt lat="48.35267" lon="-0.07606">
        <ele>57</ele>
        <time>2018-09-22T07:17:53Z</time>
      </trkpt>
      <trkpt lat="48.35268" lon="-0.07608">
        <ele>57</ele>
        <time>2018-09-22T07:17:57Z</time>
      </trkpt>
      <trkpt lat="48.35271" lon="-0.07618">
        <ele>57</ele>
        <time>2018-09-22T07:18:06Z</time>
      </trkpt>
      <trkpt lat="48.35271" lon="-0.0762">
        <ele>57</ele>
        <time>2018-09-22T07:18:15Z</time>
      </trkpt>
      <trkpt lat="48.35273" lon="-0.07621">
        <ele>57</ele>
        <time>2018-09-22T07:18:17Z</time>
      </trkpt>
      <trkpt lat="48.35273" lon="-0.07624">
        <ele>56</ele>
        <time>2018-09-22T07:18:20Z</time>
      </trkpt>
      <trkpt lat="48.35274" lon="-0.07629">
        <ele>58</ele>
        <time>2018-09-22T07:18:38Z</time>
      </trkpt>
      <trkpt lat="48.35274" lon="-0.07632">
        <ele>58</ele>
        <time>2018-09-22T07:18:40Z</time>
      </trkpt>
      <trkpt lat="48.35275" lon="-0.07682">
        <ele>46</ele>
        <time>2018-09-22T07:19:10Z</time>
      </trkpt>
      <trkpt lat="48.35275" lon="-0.07695">
        <ele>46</ele>
        <time>2018-09-22T07:19:18Z</time>
      </trkpt>
      <trkpt lat="48.35277" lon="-0.07699">
        <ele>47</ele>
        <time>2018-09-22T07:19:22Z</time>
      </trkpt>
      <trkpt lat="48.35281" lon="-0.07703">
        <ele>46</ele>
        <time>2018-09-22T07:19:27Z</time>
      </trkpt>
      <trkpt lat="48.3531" lon="-0.07715">
        <ele>55</ele>
        <time>2018-09-22T07:19:52Z</time>
      </trkpt>
      <trkpt lat="48.3532" lon="-0.07711">
        <ele>52</ele>
        <time>2018-09-22T07:20:03Z</time>
      </trkpt>
      <trkpt lat="48.35323" lon="-0.07711">
        <ele>52</ele>
        <time>2018-09-22T07:20:07Z</time>
      </trkpt>
      <trkpt lat="48.35326" lon="-0.07713">
        <ele>52</ele>
        <time>2018-09-22T07:20:10Z</time>
      </trkpt>
      <trkpt lat="48.35335" lon="-0.07722">
        <ele>52</ele>
        <time>2018-09-22T07:20:21Z</time>
      </trkpt>
      <trkpt lat="48.35342" lon="-0.07727">
        <ele>54</ele>
        <time>2018-09-22T07:20:29Z</time>
      </trkpt>
      <trkpt lat="48.35358" lon="-0.07729">
        <ele>57</ele>
        <time>2018-09-22T07:20:45Z</time>
      </trkpt>
      <trkpt lat="48.35374" lon="-0.07732">
        <ele>56</ele>
        <time>2018-09-22T07:21:00Z</time>
      </trkpt>
      <trkpt lat="48.35385" lon="-0.07734">
        <ele>56</ele>
        <time>2018-09-22T07:21:11Z</time>
      </trkpt>
      <trkpt lat="48.35388" lon="-0.07735">
        <ele>55</ele>
        <time>2018-09-22T07:21:14Z</time>
      </trkpt>
      <trkpt lat="48.35395" lon="-0.07736">
        <ele>55</ele>
        <time>2018-09-22T07:21:20Z</time>
      </trkpt>
      <trkpt lat="48.35409" lon="-0.07738">
        <ele>52</ele>
        <time>2018-09-22T07:21:33Z</time>
      </trkpt>
      <trkpt lat="48.35415" lon="-0.07738">
        <ele>51</ele>
        <time>2018-09-22T07:21:37Z</time>
      </trkpt>
      <trkpt lat="48.35423" lon="-0.07741">
        <ele>54</ele>
        <time>2018-09-22T07:21:45Z</time>
      </trkpt>
      <trkpt lat="48.35425" lon="-0.07741">
        <ele>54</ele>
        <time>2018-09-22T07:21:47Z</time>
      </trkpt>
      <trkpt lat="48.35427" lon="-0.07743">
        <ele>55</ele>
        <time>2018-09-22T07:21:50Z</time>
      </trkpt>
      <trkpt lat="48.35436" lon="-0.07746">
        <ele>59</ele>
        <time>2018-09-22T07:22:02Z</time>
      </trkpt>
      <trkpt lat="48.35437" lon="-0.07747">
        <ele>60</ele>
        <time>2018-09-22T07:22:10Z</time>
      </trkpt>
      <trkpt lat="48.35438" lon="-0.07744">
        <ele>60</ele>
        <time>2018-09-22T07:22:44Z</time>
      </trkpt>
      <trkpt lat="48.35437" lon="-0.07742">
        <ele>58</ele>
        <time>2018-09-22T07:22:49Z</time>
      </trkpt>
      <trkpt lat="48.35435" lon="-0.0774">
        <ele>57</ele>
        <time>2018-09-22T07:22:53Z</time>
      </trkpt>
      <trkpt lat="48.35435" lon="-0.07737">
        <ele>56</ele>
        <time>2018-09-22T07:22:58Z</time>
      </trkpt>
      <trkpt lat="48.35437" lon="-0.07715">
        <ele>50</ele>
        <time>2018-09-22T07:23:15Z</time>
      </trkpt>
      <trkpt lat="48.35439" lon="-0.07706">
        <ele>47</ele>
        <time>2018-09-22T07:23:22Z</time>
      </trkpt>
      <trkpt lat="48.35439" lon="-0.07689">
        <ele>45</ele>
        <time>2018-09-22T07:23:34Z</time>
      </trkpt>
      <trkpt lat="48.35438" lon="-0.07686">
        <ele>45</ele>
        <time>2018-09-22T07:23:38Z</time>
      </trkpt>
      <trkpt lat="48.3544" lon="-0.07674">
        <ele>45</ele>
        <time>2018-09-22T07:23:48Z</time>
      </trkpt>
      <trkpt lat="48.35441" lon="-0.07655">
        <ele>44</ele>
        <time>2018-09-22T07:24:01Z</time>
      </trkpt>
      <trkpt lat="48.35441" lon="-0.0765">
        <ele>44</ele>
        <time>2018-09-22T07:24:05Z</time>
      </trkpt>
      <trkpt lat="48.3544" lon="-0.07644">
        <ele>44</ele>
        <time>2018-09-22T07:24:07Z</time>
      </trkpt>
      <trkpt lat="48.35437" lon="-0.07628">
        <ele>47</ele>
        <time>2018-09-22T07:24:16Z</time>
      </trkpt>
      <trkpt lat="48.35437" lon="-0.07619">
        <ele>47</ele>
        <time>2018-09-22T07:24:21Z</time>
      </trkpt>
      <trkpt lat="48.3543" lon="-0.07572">
        <ele>49</ele>
        <time>2018-09-22T07:24:53Z</time>
      </trkpt>
      <trkpt lat="48.35431" lon="-0.07567">
        <ele>49</ele>
        <time>2018-09-22T07:24:58Z</time>
      </trkpt>
      <trkpt lat="48.35429" lon="-0.0756">
        <ele>49</ele>
        <time>2018-09-22T07:25:06Z</time>
      </trkpt>
      <trkpt lat="48.35429" lon="-0.07555">
        <ele>48</ele>
        <time>2018-09-22T07:25:11Z</time>
      </trkpt>
      <trkpt lat="48.35429" lon="-0.07546">
        <ele>47</ele>
        <time>2018-09-22T07:25:19Z</time>
      </trkpt>
      <trkpt lat="48.35428" lon="-0.07542">
        <ele>47</ele>
        <time>2018-09-22T07:25:22Z</time>
      </trkpt>
      <trkpt lat="48.35427" lon="-0.07538">
        <ele>47</ele>
        <time>2018-09-22T07:25:27Z</time>
      </trkpt>
      <trkpt lat="48.35426" lon="-0.07534">
        <ele>47</ele>
        <time>2018-09-22T07:25:31Z</time>
      </trkpt>
      <trkpt lat="48.35422" lon="-0.07516">
        <ele>47</ele>
        <time>2018-09-22T07:25:44Z</time>
      </trkpt>
      <trkpt lat="48.3542" lon="-0.07513">
        <ele>47</ele>
        <time>2018-09-22T07:25:46Z</time>
      </trkpt>
      <trkpt lat="48.35411" lon="-0.07475">
        <ele>47</ele>
        <time>2018-09-22T07:26:16Z</time>
      </trkpt>
      <trkpt lat="48.35396" lon="-0.07448">
        <ele>48</ele>
        <time>2018-09-22T07:26:43Z</time>
      </trkpt>
      <trkpt lat="48.35393" lon="-0.07441">
        <ele>47</ele>
        <time>2018-09-22T07:26:52Z</time>
      </trkpt>
      <trkpt lat="48.35376" lon="-0.07415">
        <ele>50</ele>
        <time>2018-09-22T07:27:24Z</time>
      </trkpt>
      <trkpt lat="48.35371" lon="-0.07406">
        <ele>51</ele>
        <time>2018-09-22T07:27:38Z</time>
      </trkpt>
      <trkpt lat="48.35368" lon="-0.07405">
        <ele>51</ele>
        <time>2018-09-22T07:27:41Z</time>
      </trkpt>
      <trkpt lat="48.35358" lon="-0.0739">
        <ele>51</ele>
        <time>2018-09-22T07:27:54Z</time>
      </trkpt>
      <trkpt lat="48.35346" lon="-0.07382">
        <ele>47</ele>
        <time>2018-09-22T07:28:10Z</time>
      </trkpt>
      <trkpt lat="48.35336" lon="-0.0737">
        <ele>47</ele>
        <time>2018-09-22T07:28:25Z</time>
      </trkpt>
      <trkpt lat="48.35329" lon="-0.07366">
        <ele>46</ele>
        <time>2018-09-22T07:28:31Z</time>
      </trkpt>
      <trkpt lat="48.35297" lon="-0.07353">
        <ele>48</ele>
        <time>2018-09-22T07:29:03Z</time>
      </trkpt>
      <trkpt lat="48.35277" lon="-0.0735">
        <ele>50</ele>
        <time>2018-09-22T07:29:23Z</time>
      </trkpt>
      <trkpt lat="48.35274" lon="-0.07352">
        <ele>51</ele>
        <time>2018-09-22T07:29:26Z</time>
      </trkpt>
      <trkpt lat="48.35269" lon="-0.07356">
        <ele>52</ele>
        <time>2018-09-22T07:29:35Z</time>
      </trkpt>
      <trkpt lat="48.35266" lon="-0.07355">
        <ele>53</ele>
        <time>2018-09-22T07:29:42Z</time>
      </trkpt>
      <trkpt lat="48.35263" lon="-0.07354">
        <ele>54</ele>
        <time>2018-09-22T07:29:47Z</time>
      </trkpt>
      <trkpt lat="48.35232" lon="-0.07351">
        <ele>54</ele>
        <time>2018-09-22T07:30:17Z</time>
      </trkpt>
      <trkpt lat="48.35203" lon="-0.07351">
        <ele>60</ele>
        <time>2018-09-22T07:30:51Z</time>
      </trkpt>
      <trkpt lat="48.35199" lon="-0.07351">
        <ele>60</ele>
        <time>2018-09-22T07:30:56Z</time>
      </trkpt>
      <trkpt lat="48.35195" lon="-0.07349">
        <ele>59</ele>
        <time>2018-09-22T07:30:59Z</time>
      </trkpt>
      <trkpt lat="48.35181" lon="-0.07351">
        <ele>58</ele>
        <time>2018-09-22T07:31:16Z</time>
      </trkpt>
      <trkpt lat="48.35178" lon="-0.07355">
        <ele>58</ele>
        <time>2018-09-22T07:31:19Z</time>
      </trkpt>
      <trkpt lat="48.35174" lon="-0.07357">
        <ele>58</ele>
        <time>2018-09-22T07:31:23Z</time>
      </trkpt>
      <trkpt lat="48.3517" lon="-0.0736">
        <ele>58</ele>
        <time>2018-09-22T07:31:27Z</time>
      </trkpt>
      <trkpt lat="48.35167" lon="-0.07363">
        <ele>58</ele>
        <time>2018-09-22T07:31:29Z</time>
      </trkpt>
      <trkpt lat="48.35164" lon="-0.07365">
        <ele>58</ele>
        <time>2018-09-22T07:31:33Z</time>
      </trkpt>
      <trkpt lat="48.35151" lon="-0.07368">
        <ele>56</ele>
        <time>2018-09-22T07:31:45Z</time>
      </trkpt>
      <trkpt lat="48.35148" lon="-0.0737">
        <ele>55</ele>
        <time>2018-09-22T07:31:48Z</time>
      </trkpt>
      <trkpt lat="48.35144" lon="-0.07371">
        <ele>55</ele>
        <time>2018-09-22T07:31:52Z</time>
      </trkpt>
      <trkpt lat="48.35141" lon="-0.07372">
        <ele>54</ele>
        <time>2018-09-22T07:31:58Z</time>
      </trkpt>
      <trkpt lat="48.35137" lon="-0.07371">
        <ele>54</ele>
        <time>2018-09-22T07:32:04Z</time>
      </trkpt>
      <trkpt lat="48.35129" lon="-0.07373">
        <ele>54</ele>
        <time>2018-09-22T07:32:12Z</time>
      </trkpt>
      <trkpt lat="48.35126" lon="-0.07377">
        <ele>55</ele>
        <time>2018-09-22T07:32:15Z</time>
      </trkpt>
      <trkpt lat="48.35122" lon="-0.07377">
        <ele>55</ele>
        <time>2018-09-22T07:32:18Z</time>
      </trkpt>
      <trkpt lat="48.35119" lon="-0.07379">
        <ele>55</ele>
        <time>2018-09-22T07:32:21Z</time>
      </trkpt>
      <trkpt lat="48.35116" lon="-0.07381">
        <ele>55</ele>
        <time>2018-09-22T07:32:24Z</time>
      </trkpt>
      <trkpt lat="48.35112" lon="-0.07384">
        <ele>55</ele>
        <time>2018-09-22T07:32:26Z</time>
      </trkpt>
      <trkpt lat="48.35109" lon="-0.07386">
        <ele>55</ele>
        <time>2018-09-22T07:32:29Z</time>
      </trkpt>
      <trkpt lat="48.35106" lon="-0.07389">
        <ele>54</ele>
        <time>2018-09-22T07:32:31Z</time>
      </trkpt>
      <trkpt lat="48.35104" lon="-0.07392">
        <ele>55</ele>
        <time>2018-09-22T07:32:35Z</time>
      </trkpt>
      <trkpt lat="48.35101" lon="-0.07396">
        <ele>55</ele>
        <time>2018-09-22T07:32:37Z</time>
      </trkpt>
      <trkpt lat="48.35098" lon="-0.07399">
        <ele>54</ele>
        <time>2018-09-22T07:32:41Z</time>
      </trkpt>
      <trkpt lat="48.35094" lon="-0.07402">
        <ele>54</ele>
        <time>2018-09-22T07:32:45Z</time>
      </trkpt>
      <trkpt lat="48.35083" lon="-0.07406">
        <ele>57</ele>
        <time>2018-09-22T07:32:57Z</time>
      </trkpt>
      <trkpt lat="48.3508" lon="-0.07407">
        <ele>57</ele>
        <time>2018-09-22T07:33:01Z</time>
      </trkpt>
      <trkpt lat="48.35076" lon="-0.07409">
        <ele>54</ele>
        <time>2018-09-22T07:33:04Z</time>
      </trkpt>
      <trkpt lat="48.35073" lon="-0.07412">
        <ele>53</ele>
        <time>2018-09-22T07:33:08Z</time>
      </trkpt>
      <trkpt lat="48.35047" lon="-0.07427">
        <ele>53</ele>
        <time>2018-09-22T07:33:38Z</time>
      </trkpt>
      <trkpt lat="48.35044" lon="-0.07431">
        <ele>53</ele>
        <time>2018-09-22T07:33:43Z</time>
      </trkpt>
      <trkpt lat="48.3504" lon="-0.07433">
        <ele>53</ele>
        <time>2018-09-22T07:33:47Z</time>
      </trkpt>
      <trkpt lat="48.35035" lon="-0.07436">
        <ele>51</ele>
        <time>2018-09-22T07:33:51Z</time>
      </trkpt>
      <trkpt lat="48.35033" lon="-0.0744">
        <ele>50</ele>
        <time>2018-09-22T07:33:53Z</time>
      </trkpt>
      <trkpt lat="48.35031" lon="-0.07444">
        <ele>49</ele>
        <time>2018-09-22T07:33:56Z</time>
      </trkpt>
      <trkpt lat="48.3503" lon="-0.07449">
        <ele>49</ele>
        <time>2018-09-22T07:34:00Z</time>
      </trkpt>
      <trkpt lat="48.35028" lon="-0.07454">
        <ele>51</ele>
        <time>2018-09-22T07:34:03Z</time>
      </trkpt>
      <trkpt lat="48.35027" lon="-0.0746">
        <ele>52</ele>
        <time>2018-09-22T07:34:06Z</time>
      </trkpt>
      <trkpt lat="48.35024" lon="-0.07464">
        <ele>53</ele>
        <time>2018-09-22T07:34:11Z</time>
      </trkpt>
      <trkpt lat="48.35023" lon="-0.07468">
        <ele>53</ele>
        <time>2018-09-22T07:34:15Z</time>
      </trkpt>
      <trkpt lat="48.35018" lon="-0.07482">
        <ele>57</ele>
        <time>2018-09-22T07:34:26Z</time>
      </trkpt>
      <trkpt lat="48.35016" lon="-0.07488">
        <ele>56</ele>
        <time>2018-09-22T07:34:30Z</time>
      </trkpt>
      <trkpt lat="48.35011" lon="-0.075">
        <ele>49</ele>
        <time>2018-09-22T07:34:37Z</time>
      </trkpt>
      <trkpt lat="48.35011" lon="-0.07506">
        <ele>50</ele>
        <time>2018-09-22T07:34:40Z</time>
      </trkpt>
      <trkpt lat="48.3501" lon="-0.07511">
        <ele>51</ele>
        <time>2018-09-22T07:34:43Z</time>
      </trkpt>
      <trkpt lat="48.3501" lon="-0.07516">
        <ele>53</ele>
        <time>2018-09-22T07:34:47Z</time>
      </trkpt>
      <trkpt lat="48.35009" lon="-0.07521">
        <ele>56</ele>
        <time>2018-09-22T07:34:51Z</time>
      </trkpt>
      <trkpt lat="48.35005" lon="-0.07525">
        <ele>55</ele>
        <time>2018-09-22T07:34:56Z</time>
      </trkpt>
      <trkpt lat="48.35004" lon="-0.0753">
        <ele>54</ele>
        <time>2018-09-22T07:35:00Z</time>
      </trkpt>
      <trkpt lat="48.35004" lon="-0.07535">
        <ele>54</ele>
        <time>2018-09-22T07:35:03Z</time>
      </trkpt>
      <trkpt lat="48.35" lon="-0.0754">
        <ele>55</ele>
        <time>2018-09-22T07:35:15Z</time>
      </trkpt>
      <trkpt lat="48.35" lon="-0.0755">
        <ele>58</ele>
        <time>2018-09-22T07:35:27Z</time>
      </trkpt>
      <trkpt lat="48.34999" lon="-0.07552">
        <ele>60</ele>
        <time>2018-09-22T07:35:35Z</time>
      </trkpt>
      <trkpt lat="48.34995" lon="-0.07555">
        <ele>63</ele>
        <time>2018-09-22T07:35:46Z</time>
      </trkpt>
      <trkpt lat="48.34995" lon="-0.07557">
        <ele>65</ele>
        <time>2018-09-22T07:35:53Z</time>
      </trkpt>
      <trkpt lat="48.34992" lon="-0.07561">
        <ele>66</ele>
        <time>2018-09-22T07:36:37Z</time>
      </trkpt>
      <trkpt lat="48.34988" lon="-0.07568">
        <ele>68</ele>
        <time>2018-09-22T07:36:45Z</time>
      </trkpt>
      <trkpt lat="48.34977" lon="-0.07597">
        <ele>61</ele>
        <time>2018-09-22T07:37:02Z</time>
      </trkpt>
      <trkpt lat="48.34975" lon="-0.07608">
        <ele>65</ele>
        <time>2018-09-22T07:37:09Z</time>
      </trkpt>
      <trkpt lat="48.34963" lon="-0.07631">
        <ele>66</ele>
        <time>2018-09-22T07:37:25Z</time>
      </trkpt>
      <trkpt lat="48.34954" lon="-0.07666">
        <ele>71</ele>
        <time>2018-09-22T07:37:47Z</time>
      </trkpt>
      <trkpt lat="48.34956" lon="-0.07678">
        <ele>74</ele>
        <time>2018-09-22T07:37:53Z</time>
      </trkpt>
      <trkpt lat="48.34954" lon="-0.07693">
        <ele>77</ele>
        <time>2018-09-22T07:38:03Z</time>
      </trkpt>
      <trkpt lat="48.34952" lon="-0.07697">
        <ele>78</ele>
        <time>2018-09-22T07:38:08Z</time>
      </trkpt>
      <trkpt lat="48.3495" lon="-0.07697">
        <ele>81</ele>
        <time>2018-09-22T07:38:30Z</time>
      </trkpt>
      <trkpt lat="48.3495" lon="-0.07696">
        <ele>78</ele>
        <time>2018-09-22T07:38:40Z</time>
      </trkpt>
      <trkpt lat="48.34946" lon="-0.07694">
        <ele>77</ele>
        <time>2018-09-22T07:39:16Z</time>
      </trkpt>
      <trkpt lat="48.34942" lon="-0.07689">
        <ele>76</ele>
        <time>2018-09-22T07:39:23Z</time>
      </trkpt>
      <trkpt lat="48.34941" lon="-0.07685">
        <ele>74</ele>
        <time>2018-09-22T07:39:28Z</time>
      </trkpt>
      <trkpt lat="48.34943" lon="-0.07682">
        <ele>73</ele>
        <time>2018-09-22T07:39:31Z</time>
      </trkpt>
      <trkpt lat="48.34942" lon="-0.07678">
        <ele>73</ele>
        <time>2018-09-22T07:39:34Z</time>
      </trkpt>
      <trkpt lat="48.34939" lon="-0.07672">
        <ele>74</ele>
        <time>2018-09-22T07:39:42Z</time>
      </trkpt>
      <trkpt lat="48.34939" lon="-0.07668">
        <ele>74</ele>
        <time>2018-09-22T07:39:46Z</time>
      </trkpt>
      <trkpt lat="48.34936" lon="-0.07652">
        <ele>73</ele>
        <time>2018-09-22T07:40:04Z</time>
      </trkpt>
      <trkpt lat="48.34934" lon="-0.0765">
        <ele>73</ele>
        <time>2018-09-22T07:40:07Z</time>
      </trkpt>
      <trkpt lat="48.34934" lon="-0.07646">
        <ele>73</ele>
        <time>2018-09-22T07:40:11Z</time>
      </trkpt>
      <trkpt lat="48.34934" lon="-0.07634">
        <ele>76</ele>
        <time>2018-09-22T07:40:27Z</time>
      </trkpt>
      <trkpt lat="48.34935" lon="-0.07612">
        <ele>79</ele>
        <time>2018-09-22T07:40:48Z</time>
      </trkpt>
      <trkpt lat="48.34939" lon="-0.07594">
        <ele>82</ele>
        <time>2018-09-22T07:41:06Z</time>
      </trkpt>
      <trkpt lat="48.34939" lon="-0.07589">
        <ele>82</ele>
        <time>2018-09-22T07:41:10Z</time>
      </trkpt>
      <trkpt lat="48.34939" lon="-0.07584">
        <ele>83</ele>
        <time>2018-09-22T07:41:14Z</time>
      </trkpt>
      <trkpt lat="48.34953" lon="-0.07543">
        <ele>86</ele>
        <time>2018-09-22T07:41:44Z</time>
      </trkpt>
      <trkpt lat="48.34958" lon="-0.0753">
        <ele>85</ele>
        <time>2018-09-22T07:41:53Z</time>
      </trkpt>
      <trkpt lat="48.34961" lon="-0.07521">
        <ele>86</ele>
        <time>2018-09-22T07:41:59Z</time>
      </trkpt>
      <trkpt lat="48.34972" lon="-0.07491">
        <ele>89</ele>
        <time>2018-09-22T07:42:20Z</time>
      </trkpt>
      <trkpt lat="48.34971" lon="-0.07476">
        <ele>92</ele>
        <time>2018-09-22T07:42:31Z</time>
      </trkpt>
      <trkpt lat="48.34973" lon="-0.07473">
        <ele>91</ele>
        <time>2018-09-22T07:42:34Z</time>
      </trkpt>
      <trkpt lat="48.34987" lon="-0.07449">
        <ele>90</ele>
        <time>2018-09-22T07:42:56Z</time>
      </trkpt>
      <trkpt lat="48.34999" lon="-0.07422">
        <ele>84</ele>
        <time>2018-09-22T07:43:18Z</time>
      </trkpt>
      <trkpt lat="48.35009" lon="-0.07403">
        <ele>86</ele>
        <time>2018-09-22T07:43:34Z</time>
      </trkpt>
      <trkpt lat="48.35023" lon="-0.07374">
        <ele>89</ele>
        <time>2018-09-22T07:43:54Z</time>
      </trkpt>
      <trkpt lat="48.35036" lon="-0.07349">
        <ele>92</ele>
        <time>2018-09-22T07:44:18Z</time>
      </trkpt>
      <trkpt lat="48.35037" lon="-0.07345">
        <ele>91</ele>
        <time>2018-09-22T07:44:21Z</time>
      </trkpt>
      <trkpt lat="48.35037" lon="-0.07341">
        <ele>91</ele>
        <time>2018-09-22T07:44:23Z</time>
      </trkpt>
      <trkpt lat="48.35035" lon="-0.07329">
        <ele>93</ele>
        <time>2018-09-22T07:44:29Z</time>
      </trkpt>
      <trkpt lat="48.35033" lon="-0.07325">
        <ele>95</ele>
        <time>2018-09-22T07:44:33Z</time>
      </trkpt>
      <trkpt lat="48.35029" lon="-0.07317">
        <ele>97</ele>
        <time>2018-09-22T07:44:40Z</time>
      </trkpt>
      <trkpt lat="48.35029" lon="-0.07312">
        <ele>98</ele>
        <time>2018-09-22T07:44:45Z</time>
      </trkpt>
      <trkpt lat="48.3503" lon="-0.07308">
        <ele>98</ele>
        <time>2018-09-22T07:44:48Z</time>
      </trkpt>
      <trkpt lat="48.35031" lon="-0.07305">
        <ele>99</ele>
        <time>2018-09-22T07:44:51Z</time>
      </trkpt>
      <trkpt lat="48.35038" lon="-0.07296">
        <ele>99</ele>
        <time>2018-09-22T07:45:00Z</time>
      </trkpt>
      <trkpt lat="48.35044" lon="-0.07291">
        <ele>100</ele>
        <time>2018-09-22T07:45:07Z</time>
      </trkpt>
      <trkpt lat="48.35046" lon="-0.07288">
        <ele>100</ele>
        <time>2018-09-22T07:45:10Z</time>
      </trkpt>
      <trkpt lat="48.35051" lon="-0.07283">
        <ele>101</ele>
        <time>2018-09-22T07:45:17Z</time>
      </trkpt>
      <trkpt lat="48.35061" lon="-0.07264">
        <ele>103</ele>
        <time>2018-09-22T07:45:40Z</time>
      </trkpt>
      <trkpt lat="48.35063" lon="-0.07259">
        <ele>103</ele>
        <time>2018-09-22T07:45:44Z</time>
      </trkpt>
      <trkpt lat="48.35081" lon="-0.07231">
        <ele>116</ele>
        <time>2018-09-22T07:46:16Z</time>
      </trkpt>
      <trkpt lat="48.35094" lon="-0.07215">
        <ele>121</ele>
        <time>2018-09-22T07:46:36Z</time>
      </trkpt>
      <trkpt lat="48.35105" lon="-0.07199">
        <ele>125</ele>
        <time>2018-09-22T07:46:53Z</time>
      </trkpt>
      <trkpt lat="48.35132" lon="-0.07177">
        <ele>133</ele>
        <time>2018-09-22T07:47:26Z</time>
      </trkpt>
      <trkpt lat="48.3515" lon="-0.07165">
        <ele>135</ele>
        <time>2018-09-22T07:47:50Z</time>
      </trkpt>
      <trkpt lat="48.35153" lon="-0.07163">
        <ele>135</ele>
        <time>2018-09-22T07:47:55Z</time>
      </trkpt>
      <trkpt lat="48.35154" lon="-0.07158">
        <ele>137</ele>
        <time>2018-09-22T07:47:58Z</time>
      </trkpt>
      <trkpt lat="48.35156" lon="-0.07157">
        <ele>139</ele>
        <time>2018-09-22T07:48:02Z</time>
      </trkpt>
      <trkpt lat="48.35165" lon="-0.07153">
        <ele>142</ele>
        <time>2018-09-22T07:48:15Z</time>
      </trkpt>
      <trkpt lat="48.35171" lon="-0.07148">
        <ele>145</ele>
        <time>2018-09-22T07:48:27Z</time>
      </trkpt>
      <trkpt lat="48.35178" lon="-0.07144">
        <ele>146</ele>
        <time>2018-09-22T07:48:37Z</time>
      </trkpt>
      <trkpt lat="48.35189" lon="-0.07139">
        <ele>150</ele>
        <time>2018-09-22T07:48:59Z</time>
      </trkpt>
      <trkpt lat="48.35195" lon="-0.07142">
        <ele>152</ele>
        <time>2018-09-22T07:49:11Z</time>
      </trkpt>
      <trkpt lat="48.35217" lon="-0.07132">
        <ele>150</ele>
        <time>2018-09-22T07:49:42Z</time>
      </trkpt>
      <trkpt lat="48.3522" lon="-0.07133">
        <ele>149</ele>
        <time>2018-09-22T07:49:47Z</time>
      </trkpt>
      <trkpt lat="48.35228" lon="-0.07138">
        <ele>145</ele>
        <time>2018-09-22T07:49:58Z</time>
      </trkpt>
      <trkpt lat="48.3523" lon="-0.0714">
        <ele>146</ele>
        <time>2018-09-22T07:50:02Z</time>
      </trkpt>
      <trkpt lat="48.35232" lon="-0.07141">
        <ele>147</ele>
        <time>2018-09-22T07:50:08Z</time>
      </trkpt>
      <trkpt lat="48.35235" lon="-0.07139">
        <ele>152</ele>
        <time>2018-09-22T07:55:12Z</time>
      </trkpt>
      <trkpt lat="48.35235" lon="-0.07135">
        <ele>155</ele>
        <time>2018-09-22T07:57:08Z</time>
      </trkpt>
      <trkpt lat="48.35236" lon="-0.07133">
        <ele>155</ele>
        <time>2018-09-22T07:57:11Z</time>
      </trkpt>
      <trkpt lat="48.3524" lon="-0.07128">
        <ele>159</ele>
        <time>2018-09-22T07:57:19Z</time>
      </trkpt>
      <trkpt lat="48.35245" lon="-0.07125">
        <ele>160</ele>
        <time>2018-09-22T07:57:25Z</time>
      </trkpt>
      <trkpt lat="48.35257" lon="-0.0712">
        <ele>160</ele>
        <time>2018-09-22T07:57:36Z</time>
      </trkpt>
      <trkpt lat="48.35293" lon="-0.07126">
        <ele>160</ele>
        <time>2018-09-22T07:58:07Z</time>
      </trkpt>
      <trkpt lat="48.35299" lon="-0.07126">
        <ele>159</ele>
        <time>2018-09-22T07:58:12Z</time>
      </trkpt>
      <trkpt lat="48.35307" lon="-0.07127">
        <ele>158</ele>
        <time>2018-09-22T07:58:20Z</time>
      </trkpt>
      <trkpt lat="48.35313" lon="-0.07128">
        <ele>159</ele>
        <time>2018-09-22T07:58:24Z</time>
      </trkpt>
      <trkpt lat="48.35318" lon="-0.0713">
        <ele>160</ele>
        <time>2018-09-22T07:58:28Z</time>
      </trkpt>
      <trkpt lat="48.35324" lon="-0.07131">
        <ele>159</ele>
        <time>2018-09-22T07:58:33Z</time>
      </trkpt>
      <trkpt lat="48.35326" lon="-0.07132">
        <ele>158</ele>
        <time>2018-09-22T07:58:35Z</time>
      </trkpt>
      <trkpt lat="48.35335" lon="-0.07135">
        <ele>157</ele>
        <time>2018-09-22T07:58:44Z</time>
      </trkpt>
      <trkpt lat="48.35339" lon="-0.07136">
        <ele>156</ele>
        <time>2018-09-22T07:58:47Z</time>
      </trkpt>
      <trkpt lat="48.35344" lon="-0.07138">
        <ele>157</ele>
        <time>2018-09-22T07:58:52Z</time>
      </trkpt>
      <trkpt lat="48.35355" lon="-0.0714">
        <ele>157</ele>
        <time>2018-09-22T07:59:01Z</time>
      </trkpt>
      <trkpt lat="48.3537" lon="-0.07146">
        <ele>160</ele>
        <time>2018-09-22T07:59:15Z</time>
      </trkpt>
      <trkpt lat="48.35371" lon="-0.0715">
        <ele>160</ele>
        <time>2018-09-22T07:59:18Z</time>
      </trkpt>
      <trkpt lat="48.35373" lon="-0.07159">
        <ele>160</ele>
        <time>2018-09-22T07:59:24Z</time>
      </trkpt>
      <trkpt lat="48.35373" lon="-0.07163">
        <ele>161</ele>
        <time>2018-09-22T07:59:28Z</time>
      </trkpt>
      <trkpt lat="48.35373" lon="-0.07167">
        <ele>161</ele>
        <time>2018-09-22T07:59:31Z</time>
      </trkpt>
      <trkpt lat="48.35371" lon="-0.07175">
        <ele>161</ele>
        <time>2018-09-22T07:59:37Z</time>
      </trkpt>
      <trkpt lat="48.35371" lon="-0.07183">
        <ele>160</ele>
        <time>2018-09-22T07:59:45Z</time>
      </trkpt>
      <trkpt lat="48.35373" lon="-0.07177">
        <ele>160</ele>
        <time>2018-09-22T08:00:23Z</time>
      </trkpt>
      <trkpt lat="48.35372" lon="-0.07174">
        <ele>160</ele>
        <time>2018-09-22T08:00:35Z</time>
      </trkpt>
      <trkpt lat="48.35372" lon="-0.07175">
        <ele>158</ele>
        <time>2018-09-22T08:01:59Z</time>
      </trkpt>
      <trkpt lat="48.35376" lon="-0.07166">
        <ele>158</ele>
        <time>2018-09-22T08:02:12Z</time>
      </trkpt>
      <trkpt lat="48.35379" lon="-0.07166">
        <ele>158</ele>
        <time>2018-09-22T08:02:21Z</time>
      </trkpt>
      <trkpt lat="48.35383" lon="-0.07163">
        <ele>158</ele>
        <time>2018-09-22T08:02:27Z</time>
      </trkpt>
      <trkpt lat="48.35386" lon="-0.07158">
        <ele>159</ele>
        <time>2018-09-22T08:02:38Z</time>
      </trkpt>
      <trkpt lat="48.35388" lon="-0.07155">
        <ele>159</ele>
        <time>2018-09-22T08:02:42Z</time>
      </trkpt>
      <trkpt lat="48.35396" lon="-0.07153">
        <ele>160</ele>
        <time>2018-09-22T08:02:51Z</time>
      </trkpt>
      <trkpt lat="48.35399" lon="-0.07153">
        <ele>160</ele>
        <time>2018-09-22T08:02:55Z</time>
      </trkpt>
      <trkpt lat="48.35401" lon="-0.07154">
        <ele>159</ele>
        <time>2018-09-22T08:02:59Z</time>
      </trkpt>
      <trkpt lat="48.35409" lon="-0.07156">
        <ele>161</ele>
        <time>2018-09-22T08:03:11Z</time>
      </trkpt>
      <trkpt lat="48.35414" lon="-0.07161">
        <ele>161</ele>
        <time>2018-09-22T08:03:19Z</time>
      </trkpt>
      <trkpt lat="48.35416" lon="-0.07164">
        <ele>160</ele>
        <time>2018-09-22T08:03:22Z</time>
      </trkpt>
      <trkpt lat="48.35426" lon="-0.0717">
        <ele>160</ele>
        <time>2018-09-22T08:03:34Z</time>
      </trkpt>
      <trkpt lat="48.35428" lon="-0.07173">
        <ele>161</ele>
        <time>2018-09-22T08:03:50Z</time>
      </trkpt>
      <trkpt lat="48.3543" lon="-0.07175">
        <ele>161</ele>
        <time>2018-09-22T08:03:55Z</time>
      </trkpt>
      <trkpt lat="48.35444" lon="-0.07189">
        <ele>158</ele>
        <time>2018-09-22T08:04:15Z</time>
      </trkpt>
      <trkpt lat="48.35452" lon="-0.07194">
        <ele>159</ele>
        <time>2018-09-22T08:04:22Z</time>
      </trkpt>
      <trkpt lat="48.35457" lon="-0.07199">
        <ele>157</ele>
        <time>2018-09-22T08:04:28Z</time>
      </trkpt>
      <trkpt lat="48.35466" lon="-0.07206">
        <ele>154</ele>
        <time>2018-09-22T08:04:35Z</time>
      </trkpt>
      <trkpt lat="48.35481" lon="-0.07222">
        <ele>151</ele>
        <time>2018-09-22T08:04:51Z</time>
      </trkpt>
      <trkpt lat="48.35498" lon="-0.07237">
        <ele>149</ele>
        <time>2018-09-22T08:05:11Z</time>
      </trkpt>
      <trkpt lat="48.35505" lon="-0.07245">
        <ele>148</ele>
        <time>2018-09-22T08:05:20Z</time>
      </trkpt>
      <trkpt lat="48.35508" lon="-0.07248">
        <ele>147</ele>
        <time>2018-09-22T08:05:23Z</time>
      </trkpt>
      <trkpt lat="48.35518" lon="-0.07264">
        <ele>146</ele>
        <time>2018-09-22T08:05:37Z</time>
      </trkpt>
      <trkpt lat="48.35522" lon="-0.0727">
        <ele>146</ele>
        <time>2018-09-22T08:05:42Z</time>
      </trkpt>
      <trkpt lat="48.35529" lon="-0.07278">
        <ele>147</ele>
        <time>2018-09-22T08:05:49Z</time>
      </trkpt>
      <trkpt lat="48.35532" lon="-0.07286">
        <ele>148</ele>
        <time>2018-09-22T08:05:54Z</time>
      </trkpt>
      <trkpt lat="48.35539" lon="-0.07317">
        <ele>151</ele>
        <time>2018-09-22T08:06:11Z</time>
      </trkpt>
      <trkpt lat="48.35544" lon="-0.07328">
        <ele>152</ele>
        <time>2018-09-22T08:06:18Z</time>
      </trkpt>
      <trkpt lat="48.35546" lon="-0.07328">
        <ele>153</ele>
        <time>2018-09-22T08:06:20Z</time>
      </trkpt>
      <trkpt lat="48.35555" lon="-0.07329">
        <ele>154</ele>
        <time>2018-09-22T08:06:26Z</time>
      </trkpt>
      <trkpt lat="48.35557" lon="-0.07328">
        <ele>154</ele>
        <time>2018-09-22T08:06:28Z</time>
      </trkpt>
      <trkpt lat="48.3556" lon="-0.07323">
        <ele>154</ele>
        <time>2018-09-22T08:06:41Z</time>
      </trkpt>
      <trkpt lat="48.35559" lon="-0.07328">
        <ele>156</ele>
        <time>2018-09-22T08:07:31Z</time>
      </trkpt>
      <trkpt lat="48.35557" lon="-0.07331">
        <ele>157</ele>
        <time>2018-09-22T08:07:33Z</time>
      </trkpt>
      <trkpt lat="48.35556" lon="-0.07331">
        <ele>156</ele>
        <time>2018-09-22T08:07:35Z</time>
      </trkpt>
      <trkpt lat="48.35552" lon="-0.07331">
        <ele>155</ele>
        <time>2018-09-22T08:07:39Z</time>
      </trkpt>
      <trkpt lat="48.3555" lon="-0.07332">
        <ele>155</ele>
        <time>2018-09-22T08:07:42Z</time>
      </trkpt>
      <trkpt lat="48.35548" lon="-0.07339">
        <ele>152</ele>
        <time>2018-09-22T08:07:46Z</time>
      </trkpt>
      <trkpt lat="48.35548" lon="-0.07346">
        <ele>150</ele>
        <time>2018-09-22T08:07:50Z</time>
      </trkpt>
      <trkpt lat="48.3555" lon="-0.07353">
        <ele>149</ele>
        <time>2018-09-22T08:07:54Z</time>
      </trkpt>
      <trkpt lat="48.3555" lon="-0.07359">
        <ele>148</ele>
        <time>2018-09-22T08:07:59Z</time>
      </trkpt>
      <trkpt lat="48.3555" lon="-0.07363">
        <ele>147</ele>
        <time>2018-09-22T08:08:02Z</time>
      </trkpt>
      <trkpt lat="48.3555" lon="-0.07374">
        <ele>146</ele>
        <time>2018-09-22T08:08:08Z</time>
      </trkpt>
      <trkpt lat="48.35548" lon="-0.07385">
        <ele>144</ele>
        <time>2018-09-22T08:08:16Z</time>
      </trkpt>
      <trkpt lat="48.35548" lon="-0.07393">
        <ele>143</ele>
        <time>2018-09-22T08:08:21Z</time>
      </trkpt>
      <trkpt lat="48.35549" lon="-0.07398">
        <ele>143</ele>
        <time>2018-09-22T08:08:24Z</time>
      </trkpt>
      <trkpt lat="48.35553" lon="-0.07423">
        <ele>142</ele>
        <time>2018-09-22T08:08:40Z</time>
      </trkpt>
      <trkpt lat="48.35553" lon="-0.07427">
        <ele>142</ele>
        <time>2018-09-22T08:08:43Z</time>
      </trkpt>
      <trkpt lat="48.35558" lon="-0.07464">
        <ele>140</ele>
        <time>2018-09-22T08:09:10Z</time>
      </trkpt>
      <trkpt lat="48.3556" lon="-0.0747">
        <ele>140</ele>
        <time>2018-09-22T08:09:15Z</time>
      </trkpt>
      <trkpt lat="48.35561" lon="-0.07478">
        <ele>139</ele>
        <time>2018-09-22T08:09:20Z</time>
      </trkpt>
      <trkpt lat="48.35562" lon="-0.07509">
        <ele>137</ele>
        <time>2018-09-22T08:09:49Z</time>
      </trkpt>
      <trkpt lat="48.35564" lon="-0.07513">
        <ele>137</ele>
        <time>2018-09-22T08:09:52Z</time>
      </trkpt>
      <trkpt lat="48.3557" lon="-0.07517">
        <ele>136</ele>
        <time>2018-09-22T08:09:57Z</time>
      </trkpt>
      <trkpt lat="48.35572" lon="-0.07519">
        <ele>136</ele>
        <time>2018-09-22T08:09:59Z</time>
      </trkpt>
      <trkpt lat="48.35582" lon="-0.07521">
        <ele>135</ele>
        <time>2018-09-22T08:10:10Z</time>
      </trkpt>
      <trkpt lat="48.35586" lon="-0.07519">
        <ele>134</ele>
        <time>2018-09-22T08:10:22Z</time>
      </trkpt>
      <trkpt lat="48.35581" lon="-0.07517">
        <ele>134</ele>
        <time>2018-09-22T08:10:31Z</time>
      </trkpt>
      <trkpt lat="48.35578" lon="-0.0752">
        <ele>134</ele>
        <time>2018-09-22T08:10:34Z</time>
      </trkpt>
      <trkpt lat="48.35577" lon="-0.07523">
        <ele>134</ele>
        <time>2018-09-22T08:10:37Z</time>
      </trkpt>
      <trkpt lat="48.35573" lon="-0.07529">
        <ele>134</ele>
        <time>2018-09-22T08:10:42Z</time>
      </trkpt>
      <trkpt lat="48.35571" lon="-0.07533">
        <ele>133</ele>
        <time>2018-09-22T08:10:45Z</time>
      </trkpt>
      <trkpt lat="48.35568" lon="-0.0755">
        <ele>129</ele>
        <time>2018-09-22T08:10:56Z</time>
      </trkpt>
      <trkpt lat="48.35571" lon="-0.0758">
        <ele>124</ele>
        <time>2018-09-22T08:11:16Z</time>
      </trkpt>
      <trkpt lat="48.35572" lon="-0.07583">
        <ele>124</ele>
        <time>2018-09-22T08:11:24Z</time>
      </trkpt>
      <trkpt lat="48.35574" lon="-0.07587">
        <ele>123</ele>
        <time>2018-09-22T08:11:31Z</time>
      </trkpt>
      <trkpt lat="48.35572" lon="-0.07598">
        <ele>118</ele>
        <time>2018-09-22T08:11:39Z</time>
      </trkpt>
      <trkpt lat="48.35572" lon="-0.07605">
        <ele>115</ele>
        <time>2018-09-22T08:11:45Z</time>
      </trkpt>
      <trkpt lat="48.35571" lon="-0.07608">
        <ele>114</ele>
        <time>2018-09-22T08:11:49Z</time>
      </trkpt>
      <trkpt lat="48.35572" lon="-0.07614">
        <ele>113</ele>
        <time>2018-09-22T08:12:00Z</time>
      </trkpt>
      <trkpt lat="48.35572" lon="-0.07618">
        <ele>111</ele>
        <time>2018-09-22T08:12:07Z</time>
      </trkpt>
      <trkpt lat="48.35571" lon="-0.07621">
        <ele>109</ele>
        <time>2018-09-22T08:12:11Z</time>
      </trkpt>
      <trkpt lat="48.35571" lon="-0.07623">
        <ele>108</ele>
        <time>2018-09-22T08:12:18Z</time>
      </trkpt>
      <trkpt lat="48.35574" lon="-0.07621">
        <ele>109</ele>
        <time>2018-09-22T08:13:02Z</time>
      </trkpt>
      <trkpt lat="48.35575" lon="-0.07618">
        <ele>113</ele>
        <time>2018-09-22T08:13:08Z</time>
      </trkpt>
      <trkpt lat="48.35577" lon="-0.07615">
        <ele>115</ele>
        <time>2018-09-22T08:13:12Z</time>
      </trkpt>
      <trkpt lat="48.35579" lon="-0.07608">
        <ele>120</ele>
        <time>2018-09-22T08:13:20Z</time>
      </trkpt>
      <trkpt lat="48.35578" lon="-0.07599">
        <ele>123</ele>
        <time>2018-09-22T08:13:28Z</time>
      </trkpt>
      <trkpt lat="48.35579" lon="-0.0759">
        <ele>126</ele>
        <time>2018-09-22T08:13:35Z</time>
      </trkpt>
      <trkpt lat="48.35577" lon="-0.07582">
        <ele>125</ele>
        <time>2018-09-22T08:13:40Z</time>
      </trkpt>
      <trkpt lat="48.35577" lon="-0.07574">
        <ele>125</ele>
        <time>2018-09-22T08:13:44Z</time>
      </trkpt>
      <trkpt lat="48.35577" lon="-0.07571">
        <ele>125</ele>
        <time>2018-09-22T08:13:46Z</time>
      </trkpt>
      <trkpt lat="48.35575" lon="-0.07567">
        <ele>126</ele>
        <time>2018-09-22T08:13:49Z</time>
      </trkpt>
      <trkpt lat="48.35574" lon="-0.07551">
        <ele>130</ele>
        <time>2018-09-22T08:14:02Z</time>
      </trkpt>
      <trkpt lat="48.35576" lon="-0.07531">
        <ele>135</ele>
        <time>2018-09-22T08:14:24Z</time>
      </trkpt>
      <trkpt lat="48.35577" lon="-0.07528">
        <ele>136</ele>
        <time>2018-09-22T08:14:27Z</time>
      </trkpt>
      <trkpt lat="48.35579" lon="-0.07525">
        <ele>136</ele>
        <time>2018-09-22T08:14:30Z</time>
      </trkpt>
      <trkpt lat="48.35584" lon="-0.07522">
        <ele>136</ele>
        <time>2018-09-22T08:14:38Z</time>
      </trkpt>
      <trkpt lat="48.35587" lon="-0.07521">
        <ele>136</ele>
        <time>2018-09-22T08:14:43Z</time>
      </trkpt>
      <trkpt lat="48.35589" lon="-0.07519">
        <ele>136</ele>
        <time>2018-09-22T08:14:48Z</time>
      </trkpt>
      <trkpt lat="48.35591" lon="-0.07519">
        <ele>136</ele>
        <time>2018-09-22T08:14:56Z</time>
      </trkpt>
      <trkpt lat="48.35593" lon="-0.07523">
        <ele>136</ele>
        <time>2018-09-22T08:16:08Z</time>
      </trkpt>
      <trkpt lat="48.35592" lon="-0.07522">
        <ele>136</ele>
        <time>2018-09-22T08:16:16Z</time>
      </trkpt>
      <trkpt lat="48.35594" lon="-0.07518">
        <ele>136</ele>
        <time>2018-09-22T08:17:26Z</time>
      </trkpt>
      <trkpt lat="48.35596" lon="-0.0752">
        <ele>135</ele>
        <time>2018-09-22T08:18:35Z</time>
      </trkpt>
      <trkpt lat="48.35598" lon="-0.07522">
        <ele>135</ele>
        <time>2018-09-22T08:18:38Z</time>
      </trkpt>
      <trkpt lat="48.35604" lon="-0.07542">
        <ele>125</ele>
        <time>2018-09-22T08:18:58Z</time>
      </trkpt>
      <trkpt lat="48.35605" lon="-0.07559">
        <ele>123</ele>
        <time>2018-09-22T08:19:11Z</time>
      </trkpt>
      <trkpt lat="48.35604" lon="-0.07563">
        <ele>122</ele>
        <time>2018-09-22T08:19:15Z</time>
      </trkpt>
      <trkpt lat="48.35605" lon="-0.0757">
        <ele>121</ele>
        <time>2018-09-22T08:19:23Z</time>
      </trkpt>
      <trkpt lat="48.35611" lon="-0.07588">
        <ele>120</ele>
        <time>2018-09-22T08:19:39Z</time>
      </trkpt>
      <trkpt lat="48.35613" lon="-0.07601">
        <ele>119</ele>
        <time>2018-09-22T08:19:49Z</time>
      </trkpt>
      <trkpt lat="48.35618" lon="-0.07613">
        <ele>119</ele>
        <time>2018-09-22T08:19:57Z</time>
      </trkpt>
      <trkpt lat="48.35622" lon="-0.0762">
        <ele>118</ele>
        <time>2018-09-22T08:20:03Z</time>
      </trkpt>
      <trkpt lat="48.35625" lon="-0.07628">
        <ele>118</ele>
        <time>2018-09-22T08:20:09Z</time>
      </trkpt>
      <trkpt lat="48.35631" lon="-0.07646">
        <ele>116</ele>
        <time>2018-09-22T08:20:22Z</time>
      </trkpt>
      <trkpt lat="48.35633" lon="-0.0766">
        <ele>115</ele>
        <time>2018-09-22T08:20:32Z</time>
      </trkpt>
      <trkpt lat="48.35636" lon="-0.07677">
        <ele>112</ele>
        <time>2018-09-22T08:20:45Z</time>
      </trkpt>
      <trkpt lat="48.3564" lon="-0.07699">
        <ele>108</ele>
        <time>2018-09-22T08:21:01Z</time>
      </trkpt>
      <trkpt lat="48.3564" lon="-0.07713">
        <ele>106</ele>
        <time>2018-09-22T08:21:10Z</time>
      </trkpt>
      <trkpt lat="48.35644" lon="-0.07729">
        <ele>104</ele>
        <time>2018-09-22T08:21:22Z</time>
      </trkpt>
      <trkpt lat="48.35644" lon="-0.07778">
        <ele>103</ele>
        <time>2018-09-22T08:21:53Z</time>
      </trkpt>
      <trkpt lat="48.35645" lon="-0.07781">
        <ele>103</ele>
        <time>2018-09-22T08:21:55Z</time>
      </trkpt>
      <trkpt lat="48.35649" lon="-0.07792">
        <ele>104</ele>
        <time>2018-09-22T08:22:04Z</time>
      </trkpt>
      <trkpt lat="48.35648" lon="-0.07796">
        <ele>104</ele>
        <time>2018-09-22T08:22:08Z</time>
      </trkpt>
      <trkpt lat="48.35649" lon="-0.078">
        <ele>103</ele>
        <time>2018-09-22T08:22:11Z</time>
      </trkpt>
      <trkpt lat="48.35649" lon="-0.07803">
        <ele>103</ele>
        <time>2018-09-22T08:22:14Z</time>
      </trkpt>
      <trkpt lat="48.3565" lon="-0.07806">
        <ele>103</ele>
        <time>2018-09-22T08:22:17Z</time>
      </trkpt>
      <trkpt lat="48.35649" lon="-0.07815">
        <ele>101</ele>
        <time>2018-09-22T08:22:30Z</time>
      </trkpt>
      <trkpt lat="48.35649" lon="-0.07819">
        <ele>100</ele>
        <time>2018-09-22T08:22:34Z</time>
      </trkpt>
      <trkpt lat="48.35651" lon="-0.07825">
        <ele>102</ele>
        <time>2018-09-22T08:22:55Z</time>
      </trkpt>
      <trkpt lat="48.35651" lon="-0.07828">
        <ele>102</ele>
        <time>2018-09-22T08:23:00Z</time>
      </trkpt>
      <trkpt lat="48.35651" lon="-0.07832">
        <ele>102</ele>
        <time>2018-09-22T08:23:03Z</time>
      </trkpt>
      <trkpt lat="48.35652" lon="-0.07835">
        <ele>102</ele>
        <time>2018-09-22T08:23:08Z</time>
      </trkpt>
      <trkpt lat="48.35652" lon="-0.0785">
        <ele>99</ele>
        <time>2018-09-22T08:23:20Z</time>
      </trkpt>
      <trkpt lat="48.35653" lon="-0.07855">
        <ele>98</ele>
        <time>2018-09-22T08:23:24Z</time>
      </trkpt>
      <trkpt lat="48.35651" lon="-0.07858">
        <ele>98</ele>
        <time>2018-09-22T08:23:27Z</time>
      </trkpt>
      <trkpt lat="48.35649" lon="-0.07868">
        <ele>95</ele>
        <time>2018-09-22T08:23:36Z</time>
      </trkpt>
      <trkpt lat="48.3565" lon="-0.07871">
        <ele>95</ele>
        <time>2018-09-22T08:23:39Z</time>
      </trkpt>
      <trkpt lat="48.35651" lon="-0.07876">
        <ele>94</ele>
        <time>2018-09-22T08:23:49Z</time>
      </trkpt>
      <trkpt lat="48.35651" lon="-0.07882">
        <ele>94</ele>
        <time>2018-09-22T08:23:55Z</time>
      </trkpt>
      <trkpt lat="48.35651" lon="-0.07885">
        <ele>94</ele>
        <time>2018-09-22T08:23:58Z</time>
      </trkpt>
      <trkpt lat="48.35652" lon="-0.07897">
        <ele>91</ele>
        <time>2018-09-22T08:24:08Z</time>
      </trkpt>
      <trkpt lat="48.35653" lon="-0.07901">
        <ele>91</ele>
        <time>2018-09-22T08:24:12Z</time>
      </trkpt>
      <trkpt lat="48.35656" lon="-0.07903">
        <ele>91</ele>
        <time>2018-09-22T08:24:18Z</time>
      </trkpt>
      <trkpt lat="48.35659" lon="-0.07902">
        <ele>92</ele>
        <time>2018-09-22T08:24:25Z</time>
      </trkpt>
      <trkpt lat="48.35662" lon="-0.07901">
        <ele>93</ele>
        <time>2018-09-22T08:24:29Z</time>
      </trkpt>
      <trkpt lat="48.35668" lon="-0.07906">
        <ele>95</ele>
        <time>2018-09-22T08:24:39Z</time>
      </trkpt>
      <trkpt lat="48.35673" lon="-0.0791">
        <ele>97</ele>
        <time>2018-09-22T08:24:50Z</time>
      </trkpt>
      <trkpt lat="48.35688" lon="-0.07908">
        <ele>99</ele>
        <time>2018-09-22T08:25:10Z</time>
      </trkpt>
      <trkpt lat="48.35696" lon="-0.07904">
        <ele>100</ele>
        <time>2018-09-22T08:25:17Z</time>
      </trkpt>
      <trkpt lat="48.35697" lon="-0.07902">
        <ele>101</ele>
        <time>2018-09-22T08:25:19Z</time>
      </trkpt>
      <trkpt lat="48.35705" lon="-0.079">
        <ele>101</ele>
        <time>2018-09-22T08:25:29Z</time>
      </trkpt>
      <trkpt lat="48.35711" lon="-0.07893">
        <ele>100</ele>
        <time>2018-09-22T08:25:38Z</time>
      </trkpt>
      <trkpt lat="48.35714" lon="-0.07892">
        <ele>101</ele>
        <time>2018-09-22T08:25:41Z</time>
      </trkpt>
      <trkpt lat="48.35717" lon="-0.07893">
        <ele>101</ele>
        <time>2018-09-22T08:25:45Z</time>
      </trkpt>
      <trkpt lat="48.35719" lon="-0.07893">
        <ele>101</ele>
        <time>2018-09-22T08:25:48Z</time>
      </trkpt>
      <trkpt lat="48.35725" lon="-0.0789">
        <ele>102</ele>
        <time>2018-09-22T08:25:54Z</time>
      </trkpt>
      <trkpt lat="48.35729" lon="-0.07887">
        <ele>103</ele>
        <time>2018-09-22T08:26:00Z</time>
      </trkpt>
      <trkpt lat="48.35731" lon="-0.07884">
        <ele>103</ele>
        <time>2018-09-22T08:26:04Z</time>
      </trkpt>
      <trkpt lat="48.35733" lon="-0.07884">
        <ele>103</ele>
        <time>2018-09-22T08:26:07Z</time>
      </trkpt>
      <trkpt lat="48.35738" lon="-0.07882">
        <ele>102</ele>
        <time>2018-09-22T08:26:13Z</time>
      </trkpt>
      <trkpt lat="48.35745" lon="-0.07881">
        <ele>103</ele>
        <time>2018-09-22T08:26:23Z</time>
      </trkpt>
      <trkpt lat="48.35758" lon="-0.07875">
        <ele>103</ele>
        <time>2018-09-22T08:26:38Z</time>
      </trkpt>
      <trkpt lat="48.35763" lon="-0.07874">
        <ele>103</ele>
        <time>2018-09-22T08:26:46Z</time>
      </trkpt>
      <trkpt lat="48.35764" lon="-0.07873">
        <ele>103</ele>
        <time>2018-09-22T08:26:54Z</time>
      </trkpt>
      <trkpt lat="48.35765" lon="-0.0787">
        <ele>103</ele>
        <time>2018-09-22T08:27:14Z</time>
      </trkpt>
      <trkpt lat="48.3577" lon="-0.07869">
        <ele>104</ele>
        <time>2018-09-22T08:27:21Z</time>
      </trkpt>
      <trkpt lat="48.35775" lon="-0.07866">
        <ele>103</ele>
        <time>2018-09-22T08:27:29Z</time>
      </trkpt>
      <trkpt lat="48.3578" lon="-0.07863">
        <ele>101</ele>
        <time>2018-09-22T08:27:35Z</time>
      </trkpt>
      <trkpt lat="48.35782" lon="-0.0786">
        <ele>100</ele>
        <time>2018-09-22T08:27:38Z</time>
      </trkpt>
      <trkpt lat="48.35783" lon="-0.07857">
        <ele>99</ele>
        <time>2018-09-22T08:27:40Z</time>
      </trkpt>
      <trkpt lat="48.35786" lon="-0.07855">
        <ele>97</ele>
        <time>2018-09-22T08:27:43Z</time>
      </trkpt>
      <trkpt lat="48.3579" lon="-0.0785">
        <ele>96</ele>
        <time>2018-09-22T08:27:50Z</time>
      </trkpt>
      <trkpt lat="48.35793" lon="-0.07848">
        <ele>96</ele>
        <time>2018-09-22T08:27:53Z</time>
      </trkpt>
      <trkpt lat="48.35796" lon="-0.07847">
        <ele>96</ele>
        <time>2018-09-22T08:27:56Z</time>
      </trkpt>
      <trkpt lat="48.35803" lon="-0.07845">
        <ele>96</ele>
        <time>2018-09-22T08:28:03Z</time>
      </trkpt>
      <trkpt lat="48.35805" lon="-0.07845">
        <ele>95</ele>
        <time>2018-09-22T08:28:07Z</time>
      </trkpt>
      <trkpt lat="48.3581" lon="-0.07841">
        <ele>97</ele>
        <time>2018-09-22T08:28:18Z</time>
      </trkpt>
      <trkpt lat="48.35812" lon="-0.07838">
        <ele>98</ele>
        <time>2018-09-22T08:28:22Z</time>
      </trkpt>
      <trkpt lat="48.35814" lon="-0.07846">
        <ele>98</ele>
        <time>2018-09-22T08:28:37Z</time>
      </trkpt>
      <trkpt lat="48.35812" lon="-0.07854">
        <ele>96</ele>
        <time>2018-09-22T08:28:45Z</time>
      </trkpt>
      <trkpt lat="48.35813" lon="-0.07858">
        <ele>95</ele>
        <time>2018-09-22T08:28:48Z</time>
      </trkpt>
      <trkpt lat="48.35812" lon="-0.07862">
        <ele>94</ele>
        <time>2018-09-22T08:28:52Z</time>
      </trkpt>
      <trkpt lat="48.35813" lon="-0.07878">
        <ele>92</ele>
        <time>2018-09-22T08:29:07Z</time>
      </trkpt>
      <trkpt lat="48.35815" lon="-0.07903">
        <ele>86</ele>
        <time>2018-09-22T08:29:24Z</time>
      </trkpt>
      <trkpt lat="48.35816" lon="-0.07907">
        <ele>85</ele>
        <time>2018-09-22T08:29:26Z</time>
      </trkpt>
      <trkpt lat="48.35817" lon="-0.07909">
        <ele>85</ele>
        <time>2018-09-22T08:29:28Z</time>
      </trkpt>
      <trkpt lat="48.35819" lon="-0.07911">
        <ele>85</ele>
        <time>2018-09-22T08:29:32Z</time>
      </trkpt>
      <trkpt lat="48.35822" lon="-0.07912">
        <ele>85</ele>
        <time>2018-09-22T08:29:35Z</time>
      </trkpt>
      <trkpt lat="48.35827" lon="-0.0791">
        <ele>84</ele>
        <time>2018-09-22T08:29:43Z</time>
      </trkpt>
      <trkpt lat="48.35838" lon="-0.07905">
        <ele>83</ele>
        <time>2018-09-22T08:29:54Z</time>
      </trkpt>
      <trkpt lat="48.35842" lon="-0.07902">
        <ele>83</ele>
        <time>2018-09-22T08:29:59Z</time>
      </trkpt>
      <trkpt lat="48.35855" lon="-0.07893">
        <ele>84</ele>
        <time>2018-09-22T08:30:11Z</time>
      </trkpt>
      <trkpt lat="48.35855" lon="-0.07891">
        <ele>86</ele>
        <time>2018-09-22T08:31:40Z</time>
      </trkpt>
      <trkpt lat="48.35861" lon="-0.07889">
        <ele>87</ele>
        <time>2018-09-22T08:31:48Z</time>
      </trkpt>
      <trkpt lat="48.35864" lon="-0.07887">
        <ele>87</ele>
        <time>2018-09-22T08:31:52Z</time>
      </trkpt>
      <trkpt lat="48.35865" lon="-0.07886">
        <ele>87</ele>
        <time>2018-09-22T08:31:54Z</time>
      </trkpt>
      <trkpt lat="48.35867" lon="-0.07884">
        <ele>87</ele>
        <time>2018-09-22T08:31:56Z</time>
      </trkpt>
      <trkpt lat="48.35869" lon="-0.07881">
        <ele>88</ele>
        <time>2018-09-22T08:32:00Z</time>
      </trkpt>
      <trkpt lat="48.3587" lon="-0.07879">
        <ele>89</ele>
        <time>2018-09-22T08:32:02Z</time>
      </trkpt>
      <trkpt lat="48.35872" lon="-0.07878">
        <ele>89</ele>
        <time>2018-09-22T08:32:04Z</time>
      </trkpt>
      <trkpt lat="48.35876" lon="-0.07873">
        <ele>89</ele>
        <time>2018-09-22T08:32:10Z</time>
      </trkpt>
      <trkpt lat="48.35877" lon="-0.07872">
        <ele>89</ele>
        <time>2018-09-22T08:32:18Z</time>
      </trkpt>
      <trkpt lat="48.3589" lon="-0.07862">
        <ele>88</ele>
        <time>2018-09-22T08:32:34Z</time>
      </trkpt>
      <trkpt lat="48.359" lon="-0.07854">
        <ele>88</ele>
        <time>2018-09-22T08:32:49Z</time>
      </trkpt>
      <trkpt lat="48.35906" lon="-0.07851">
        <ele>88</ele>
        <time>2018-09-22T08:32:55Z</time>
      </trkpt>
      <trkpt lat="48.35908" lon="-0.07849">
        <ele>88</ele>
        <time>2018-09-22T08:32:58Z</time>
      </trkpt>
      <trkpt lat="48.3591" lon="-0.07848">
        <ele>88</ele>
        <time>2018-09-22T08:33:01Z</time>
      </trkpt>
      <trkpt lat="48.35912" lon="-0.07847">
        <ele>87</ele>
        <time>2018-09-22T08:33:08Z</time>
      </trkpt>
      <trkpt lat="48.35921" lon="-0.07841">
        <ele>89</ele>
        <time>2018-09-22T08:33:28Z</time>
      </trkpt>
      <trkpt lat="48.35931" lon="-0.07832">
        <ele>84</ele>
        <time>2018-09-22T08:33:38Z</time>
      </trkpt>
      <trkpt lat="48.35941" lon="-0.07818">
        <ele>80</ele>
        <time>2018-09-22T08:33:49Z</time>
      </trkpt>
      <trkpt lat="48.35942" lon="-0.07816">
        <ele>80</ele>
        <time>2018-09-22T08:33:51Z</time>
      </trkpt>
      <trkpt lat="48.35967" lon="-0.07789">
        <ele>75</ele>
        <time>2018-09-22T08:34:21Z</time>
      </trkpt>
      <trkpt lat="48.35981" lon="-0.0778">
        <ele>74</ele>
        <time>2018-09-22T08:34:33Z</time>
      </trkpt>
      <trkpt lat="48.35986" lon="-0.07779">
        <ele>75</ele>
        <time>2018-09-22T08:34:37Z</time>
      </trkpt>
      <trkpt lat="48.3599" lon="-0.07776">
        <ele>75</ele>
        <time>2018-09-22T08:34:41Z</time>
      </trkpt>
      <trkpt lat="48.35992" lon="-0.07775">
        <ele>75</ele>
        <time>2018-09-22T08:34:43Z</time>
      </trkpt>
      <trkpt lat="48.35996" lon="-0.07777">
        <ele>73</ele>
        <time>2018-09-22T08:34:47Z</time>
      </trkpt>
      <trkpt lat="48.35999" lon="-0.07778">
        <ele>73</ele>
        <time>2018-09-22T08:34:49Z</time>
      </trkpt>
      <trkpt lat="48.36001" lon="-0.07779">
        <ele>73</ele>
        <time>2018-09-22T08:34:53Z</time>
      </trkpt>
      <trkpt lat="48.36003" lon="-0.07784">
        <ele>72</ele>
        <time>2018-09-22T08:34:57Z</time>
      </trkpt>
      <trkpt lat="48.36007" lon="-0.07797">
        <ele>73</ele>
        <time>2018-09-22T08:35:05Z</time>
      </trkpt>
      <trkpt lat="48.36009" lon="-0.07816">
        <ele>74</ele>
        <time>2018-09-22T08:35:19Z</time>
      </trkpt>
      <trkpt lat="48.3601" lon="-0.0782">
        <ele>74</ele>
        <time>2018-09-22T08:35:21Z</time>
      </trkpt>
      <trkpt lat="48.36009" lon="-0.07823">
        <ele>74</ele>
        <time>2018-09-22T08:35:23Z</time>
      </trkpt>
      <trkpt lat="48.36009" lon="-0.07827">
        <ele>74</ele>
        <time>2018-09-22T08:35:25Z</time>
      </trkpt>
      <trkpt lat="48.36011" lon="-0.07833">
        <ele>74</ele>
        <time>2018-09-22T08:35:29Z</time>
      </trkpt>
      <trkpt lat="48.36013" lon="-0.07836">
        <ele>74</ele>
        <time>2018-09-22T08:35:31Z</time>
      </trkpt>
      <trkpt lat="48.36017" lon="-0.0784">
        <ele>74</ele>
        <time>2018-09-22T08:35:35Z</time>
      </trkpt>
      <trkpt lat="48.36021" lon="-0.07841">
        <ele>75</ele>
        <time>2018-09-22T08:35:39Z</time>
      </trkpt>
      <trkpt lat="48.36023" lon="-0.07841">
        <ele>75</ele>
        <time>2018-09-22T08:35:41Z</time>
      </trkpt>
      <trkpt lat="48.3603" lon="-0.07838">
        <ele>75</ele>
        <time>2018-09-22T08:35:47Z</time>
      </trkpt>
      <trkpt lat="48.36036" lon="-0.07832">
        <ele>74</ele>
        <time>2018-09-22T08:35:55Z</time>
      </trkpt>
      <trkpt lat="48.36037" lon="-0.07829">
        <ele>73</ele>
        <time>2018-09-22T08:35:58Z</time>
      </trkpt>
      <trkpt lat="48.36041" lon="-0.07823">
        <ele>72</ele>
        <time>2018-09-22T08:36:04Z</time>
      </trkpt>
      <trkpt lat="48.36043" lon="-0.07819">
        <ele>72</ele>
        <time>2018-09-22T08:36:07Z</time>
      </trkpt>
      <trkpt lat="48.36045" lon="-0.07812">
        <ele>70</ele>
        <time>2018-09-22T08:36:13Z</time>
      </trkpt>
      <trkpt lat="48.36055" lon="-0.07802">
        <ele>70</ele>
        <time>2018-09-22T08:36:24Z</time>
      </trkpt>
      <trkpt lat="48.36056" lon="-0.07799">
        <ele>71</ele>
        <time>2018-09-22T08:36:26Z</time>
      </trkpt>
      <trkpt lat="48.36066" lon="-0.07772">
        <ele>70</ele>
        <time>2018-09-22T08:36:45Z</time>
      </trkpt>
      <trkpt lat="48.36069" lon="-0.0776">
        <ele>67</ele>
        <time>2018-09-22T08:36:53Z</time>
      </trkpt>
      <trkpt lat="48.3607" lon="-0.07756">
        <ele>67</ele>
        <time>2018-09-22T08:36:55Z</time>
      </trkpt>
      <trkpt lat="48.36075" lon="-0.07743">
        <ele>66</ele>
        <time>2018-09-22T08:37:03Z</time>
      </trkpt>
      <trkpt lat="48.36079" lon="-0.07725">
        <ele>67</ele>
        <time>2018-09-22T08:37:13Z</time>
      </trkpt>
      <trkpt lat="48.36083" lon="-0.07712">
        <ele>67</ele>
        <time>2018-09-22T08:37:21Z</time>
      </trkpt>
      <trkpt lat="48.36085" lon="-0.07709">
        <ele>68</ele>
        <time>2018-09-22T08:37:23Z</time>
      </trkpt>
      <trkpt lat="48.36091" lon="-0.07689">
        <ele>66</ele>
        <time>2018-09-22T08:37:36Z</time>
      </trkpt>
      <trkpt lat="48.36098" lon="-0.07673">
        <ele>63</ele>
        <time>2018-09-22T08:37:48Z</time>
      </trkpt>
      <trkpt lat="48.36101" lon="-0.07663">
        <ele>60</ele>
        <time>2018-09-22T08:37:56Z</time>
      </trkpt>
      <trkpt lat="48.36107" lon="-0.07654">
        <ele>60</ele>
        <time>2018-09-22T08:38:02Z</time>
      </trkpt>
      <trkpt lat="48.36108" lon="-0.0765">
        <ele>59</ele>
        <time>2018-09-22T08:38:05Z</time>
      </trkpt>
      <trkpt lat="48.36125" lon="-0.07618">
        <ele>58</ele>
        <time>2018-09-22T08:38:31Z</time>
      </trkpt>
      <trkpt lat="48.36128" lon="-0.07611">
        <ele>56</ele>
        <time>2018-09-22T08:38:37Z</time>
      </trkpt>
      <trkpt lat="48.3613" lon="-0.07607">
        <ele>55</ele>
        <time>2018-09-22T08:38:40Z</time>
      </trkpt>
      <trkpt lat="48.36159" lon="-0.07575">
        <ele>51</ele>
        <time>2018-09-22T08:39:12Z</time>
      </trkpt>
      <trkpt lat="48.36174" lon="-0.07566">
        <ele>51</ele>
        <time>2018-09-22T08:39:25Z</time>
      </trkpt>
      <trkpt lat="48.36209" lon="-0.07556">
        <ele>51</ele>
        <time>2018-09-22T08:39:53Z</time>
      </trkpt>
      <trkpt lat="48.36241" lon="-0.07555">
        <ele>53</ele>
        <time>2018-09-22T08:40:17Z</time>
      </trkpt>
      <trkpt lat="48.36244" lon="-0.07555">
        <ele>53</ele>
        <time>2018-09-22T08:40:19Z</time>
      </trkpt>
      <trkpt lat="48.36273" lon="-0.07552">
        <ele>56</ele>
        <time>2018-09-22T08:40:48Z</time>
      </trkpt>
      <trkpt lat="48.36276" lon="-0.07551">
        <ele>56</ele>
        <time>2018-09-22T08:41:08Z</time>
      </trkpt>
      <trkpt lat="48.36277" lon="-0.07553">
        <ele>53</ele>
        <time>2018-09-22T08:41:12Z</time>
      </trkpt>
      <trkpt lat="48.36278" lon="-0.07556">
        <ele>53</ele>
        <time>2018-09-22T08:41:16Z</time>
      </trkpt>
      <trkpt lat="48.3628" lon="-0.07559">
        <ele>51</ele>
        <time>2018-09-22T08:41:20Z</time>
      </trkpt>
      <trkpt lat="48.36282" lon="-0.07561">
        <ele>50</ele>
        <time>2018-09-22T08:41:23Z</time>
      </trkpt>
      <trkpt lat="48.36298" lon="-0.07571">
        <ele>48</ele>
        <time>2018-09-22T08:41:48Z</time>
      </trkpt>
      <trkpt lat="48.363" lon="-0.07573">
        <ele>48</ele>
        <time>2018-09-22T08:41:51Z</time>
      </trkpt>
      <trkpt lat="48.36307" lon="-0.07578">
        <ele>47</ele>
        <time>2018-09-22T08:42:00Z</time>
      </trkpt>
      <trkpt lat="48.36312" lon="-0.07581">
        <ele>49</ele>
        <time>2018-09-22T08:42:06Z</time>
      </trkpt>
      <trkpt lat="48.36316" lon="-0.07583">
        <ele>50</ele>
        <time>2018-09-22T08:42:11Z</time>
      </trkpt>
      <trkpt lat="48.36321" lon="-0.07585">
        <ele>51</ele>
        <time>2018-09-22T08:42:15Z</time>
      </trkpt>
      <trkpt lat="48.36324" lon="-0.07586">
        <ele>51</ele>
        <time>2018-09-22T08:42:17Z</time>
      </trkpt>
      <trkpt lat="48.36328" lon="-0.07589">
        <ele>52</ele>
        <time>2018-09-22T08:42:21Z</time>
      </trkpt>
      <trkpt lat="48.36331" lon="-0.07591">
        <ele>53</ele>
        <time>2018-09-22T08:42:23Z</time>
      </trkpt>
      <trkpt lat="48.36332" lon="-0.07593">
        <ele>53</ele>
        <time>2018-09-22T08:42:25Z</time>
      </trkpt>
      <trkpt lat="48.36335" lon="-0.07597">
        <ele>53</ele>
        <time>2018-09-22T08:42:29Z</time>
      </trkpt>
      <trkpt lat="48.36336" lon="-0.07599">
        <ele>53</ele>
        <time>2018-09-22T08:42:32Z</time>
      </trkpt>
      <trkpt lat="48.36338" lon="-0.07597">
        <ele>54</ele>
        <time>2018-09-22T08:42:58Z</time>
      </trkpt>
      <trkpt lat="48.36342" lon="-0.07598">
        <ele>53</ele>
        <time>2018-09-22T08:43:04Z</time>
      </trkpt>
      <trkpt lat="48.36346" lon="-0.07597">
        <ele>53</ele>
        <time>2018-09-22T08:43:10Z</time>
      </trkpt>
      <trkpt lat="48.36349" lon="-0.07599">
        <ele>53</ele>
        <time>2018-09-22T08:43:14Z</time>
      </trkpt>
      <trkpt lat="48.36355" lon="-0.07604">
        <ele>53</ele>
        <time>2018-09-22T08:43:20Z</time>
      </trkpt>
      <trkpt lat="48.36357" lon="-0.07606">
        <ele>53</ele>
        <time>2018-09-22T08:43:22Z</time>
      </trkpt>
      <trkpt lat="48.36362" lon="-0.07611">
        <ele>54</ele>
        <time>2018-09-22T08:43:28Z</time>
      </trkpt>
      <trkpt lat="48.36364" lon="-0.07612">
        <ele>54</ele>
        <time>2018-09-22T08:43:30Z</time>
      </trkpt>
      <trkpt lat="48.36367" lon="-0.07613">
        <ele>54</ele>
        <time>2018-09-22T08:43:32Z</time>
      </trkpt>
      <trkpt lat="48.36369" lon="-0.07614">
        <ele>54</ele>
        <time>2018-09-22T08:43:34Z</time>
      </trkpt>
      <trkpt lat="48.36371" lon="-0.07616">
        <ele>54</ele>
        <time>2018-09-22T08:43:36Z</time>
      </trkpt>
      <trkpt lat="48.36379" lon="-0.07624">
        <ele>53</ele>
        <time>2018-09-22T08:43:46Z</time>
      </trkpt>
      <trkpt lat="48.36382" lon="-0.07626">
        <ele>53</ele>
        <time>2018-09-22T08:43:49Z</time>
      </trkpt>
      <trkpt lat="48.36386" lon="-0.07629">
        <ele>54</ele>
        <time>2018-09-22T08:43:53Z</time>
      </trkpt>
      <trkpt lat="48.36388" lon="-0.07631">
        <ele>54</ele>
        <time>2018-09-22T08:43:55Z</time>
      </trkpt>
      <trkpt lat="48.36391" lon="-0.07632">
        <ele>55</ele>
        <time>2018-09-22T08:43:57Z</time>
      </trkpt>
      <trkpt lat="48.36395" lon="-0.07634">
        <ele>56</ele>
        <time>2018-09-22T08:44:01Z</time>
      </trkpt>
      <trkpt lat="48.36403" lon="-0.07638">
        <ele>55</ele>
        <time>2018-09-22T08:44:07Z</time>
      </trkpt>
      <trkpt lat="48.36405" lon="-0.07639">
        <ele>54</ele>
        <time>2018-09-22T08:44:09Z</time>
      </trkpt>
      <trkpt lat="48.36407" lon="-0.07641">
        <ele>54</ele>
        <time>2018-09-22T08:44:11Z</time>
      </trkpt>
      <trkpt lat="48.36413" lon="-0.07644">
        <ele>54</ele>
        <time>2018-09-22T08:44:17Z</time>
      </trkpt>
      <trkpt lat="48.36418" lon="-0.07648">
        <ele>54</ele>
        <time>2018-09-22T08:44:23Z</time>
      </trkpt>
      <trkpt lat="48.36423" lon="-0.0765">
        <ele>55</ele>
        <time>2018-09-22T08:44:27Z</time>
      </trkpt>
      <trkpt lat="48.36425" lon="-0.07652">
        <ele>55</ele>
        <time>2018-09-22T08:44:29Z</time>
      </trkpt>
      <trkpt lat="48.36429" lon="-0.07655">
        <ele>56</ele>
        <time>2018-09-22T08:44:33Z</time>
      </trkpt>
      <trkpt lat="48.36446" lon="-0.07671">
        <ele>55</ele>
        <time>2018-09-22T08:44:51Z</time>
      </trkpt>
      <trkpt lat="48.36456" lon="-0.07678">
        <ele>58</ele>
        <time>2018-09-22T08:45:01Z</time>
      </trkpt>
      <trkpt lat="48.36458" lon="-0.0768">
        <ele>59</ele>
        <time>2018-09-22T08:45:03Z</time>
      </trkpt>
      <trkpt lat="48.36461" lon="-0.07681">
        <ele>59</ele>
        <time>2018-09-22T08:45:05Z</time>
      </trkpt>
      <trkpt lat="48.36471" lon="-0.07685">
        <ele>58</ele>
        <time>2018-09-22T08:45:13Z</time>
      </trkpt>
      <trkpt lat="48.36474" lon="-0.07686">
        <ele>58</ele>
        <time>2018-09-22T08:45:15Z</time>
      </trkpt>
      <trkpt lat="48.36476" lon="-0.07687">
        <ele>58</ele>
        <time>2018-09-22T08:45:17Z</time>
      </trkpt>
      <trkpt lat="48.36482" lon="-0.07688">
        <ele>57</ele>
        <time>2018-09-22T08:45:21Z</time>
      </trkpt>
      <trkpt lat="48.36484" lon="-0.07689">
        <ele>57</ele>
        <time>2018-09-22T08:45:23Z</time>
      </trkpt>
      <trkpt lat="48.36487" lon="-0.0769">
        <ele>57</ele>
        <time>2018-09-22T08:45:25Z</time>
      </trkpt>
      <trkpt lat="48.36489" lon="-0.07692">
        <ele>58</ele>
        <time>2018-09-22T08:45:27Z</time>
      </trkpt>
      <trkpt lat="48.36492" lon="-0.07693">
        <ele>58</ele>
        <time>2018-09-22T08:45:29Z</time>
      </trkpt>
      <trkpt lat="48.36494" lon="-0.07694">
        <ele>58</ele>
        <time>2018-09-22T08:45:31Z</time>
      </trkpt>
      <trkpt lat="48.36495" lon="-0.07695">
        <ele>58</ele>
        <time>2018-09-22T08:45:33Z</time>
      </trkpt>
      <trkpt lat="48.365" lon="-0.07696">
        <ele>59</ele>
        <time>2018-09-22T08:45:37Z</time>
      </trkpt>
      <trkpt lat="48.36502" lon="-0.07698">
        <ele>59</ele>
        <time>2018-09-22T08:45:40Z</time>
      </trkpt>
      <trkpt lat="48.36503" lon="-0.07697">
        <ele>59</ele>
        <time>2018-09-22T08:45:53Z</time>
      </trkpt>
      <trkpt lat="48.36505" lon="-0.07698">
        <ele>59</ele>
        <time>2018-09-22T08:46:09Z</time>
      </trkpt>
      <trkpt lat="48.36506" lon="-0.07699">
        <ele>59</ele>
        <time>2018-09-22T08:46:25Z</time>
      </trkpt>
      <trkpt lat="48.36508" lon="-0.07701">
        <ele>59</ele>
        <time>2018-09-22T08:46:28Z</time>
      </trkpt>
      <trkpt lat="48.3651" lon="-0.07703">
        <ele>59</ele>
        <time>2018-09-22T08:46:30Z</time>
      </trkpt>
      <trkpt lat="48.36538" lon="-0.07721">
        <ele>58</ele>
        <time>2018-09-22T08:46:58Z</time>
      </trkpt>
      <trkpt lat="48.36542" lon="-0.07723">
        <ele>58</ele>
        <time>2018-09-22T08:47:02Z</time>
      </trkpt>
      <trkpt lat="48.36572" lon="-0.0774">
        <ele>59</ele>
        <time>2018-09-22T08:47:32Z</time>
      </trkpt>
      <trkpt lat="48.3658" lon="-0.07746">
        <ele>59</ele>
        <time>2018-09-22T08:47:40Z</time>
      </trkpt>
      <trkpt lat="48.36613" lon="-0.07754">
        <ele>55</ele>
        <time>2018-09-22T08:48:12Z</time>
      </trkpt>
      <trkpt lat="48.36648" lon="-0.0776">
        <ele>52</ele>
        <time>2018-09-22T08:48:43Z</time>
      </trkpt>
      <trkpt lat="48.36655" lon="-0.07761">
        <ele>54</ele>
        <time>2018-09-22T08:48:52Z</time>
      </trkpt>
      <trkpt lat="48.36658" lon="-0.0776">
        <ele>54</ele>
        <time>2018-09-22T08:48:58Z</time>
      </trkpt>
      <trkpt lat="48.3666" lon="-0.07756">
        <ele>54</ele>
        <time>2018-09-22T08:49:02Z</time>
      </trkpt>
      <trkpt lat="48.36661" lon="-0.07749">
        <ele>54</ele>
        <time>2018-09-22T08:49:06Z</time>
      </trkpt>
      <trkpt lat="48.36666" lon="-0.07703">
        <ele>58</ele>
        <time>2018-09-22T08:49:34Z</time>
      </trkpt>
      <trkpt lat="48.36667" lon="-0.077">
        <ele>58</ele>
        <time>2018-09-22T08:49:36Z</time>
      </trkpt>
      <trkpt lat="48.3667" lon="-0.07681">
        <ele>58</ele>
        <time>2018-09-22T08:49:50Z</time>
      </trkpt>
      <trkpt lat="48.36671" lon="-0.07673">
        <ele>59</ele>
        <time>2018-09-22T08:49:56Z</time>
      </trkpt>
      <trkpt lat="48.36671" lon="-0.07669">
        <ele>60</ele>
        <time>2018-09-22T08:49:59Z</time>
      </trkpt>
      <trkpt lat="48.36673" lon="-0.07667">
        <ele>60</ele>
        <time>2018-09-22T08:50:03Z</time>
      </trkpt>
      <trkpt lat="48.36675" lon="-0.07665">
        <ele>60</ele>
        <time>2018-09-22T08:50:06Z</time>
      </trkpt>
      <trkpt lat="48.36693" lon="-0.07666">
        <ele>60</ele>
        <time>2018-09-22T08:50:25Z</time>
      </trkpt>
      <trkpt lat="48.36696" lon="-0.07666">
        <ele>59</ele>
        <time>2018-09-22T08:50:27Z</time>
      </trkpt>
      <trkpt lat="48.3671" lon="-0.07671">
        <ele>57</ele>
        <time>2018-09-22T08:50:40Z</time>
      </trkpt>
      <trkpt lat="48.36724" lon="-0.07672">
        <ele>59</ele>
        <time>2018-09-22T08:50:52Z</time>
      </trkpt>
      <trkpt lat="48.36727" lon="-0.07673">
        <ele>58</ele>
        <time>2018-09-22T08:50:55Z</time>
      </trkpt>
      <trkpt lat="48.36739" lon="-0.07683">
        <ele>57</ele>
        <time>2018-09-22T08:51:08Z</time>
      </trkpt>
      <trkpt lat="48.3674" lon="-0.07685">
        <ele>57</ele>
        <time>2018-09-22T08:51:10Z</time>
      </trkpt>
      <trkpt lat="48.36743" lon="-0.07687">
        <ele>57</ele>
        <time>2018-09-22T08:51:12Z</time>
      </trkpt>
      <trkpt lat="48.36744" lon="-0.0769">
        <ele>57</ele>
        <time>2018-09-22T08:51:14Z</time>
      </trkpt>
      <trkpt lat="48.36757" lon="-0.07702">
        <ele>57</ele>
        <time>2018-09-22T08:51:28Z</time>
      </trkpt>
      <trkpt lat="48.36759" lon="-0.07704">
        <ele>57</ele>
        <time>2018-09-22T08:51:30Z</time>
      </trkpt>
      <trkpt lat="48.36763" lon="-0.07708">
        <ele>57</ele>
        <time>2018-09-22T08:51:34Z</time>
      </trkpt>
      <trkpt lat="48.36767" lon="-0.07714">
        <ele>56</ele>
        <time>2018-09-22T08:51:39Z</time>
      </trkpt>
      <trkpt lat="48.36768" lon="-0.07717">
        <ele>55</ele>
        <time>2018-09-22T08:51:42Z</time>
      </trkpt>
      <trkpt lat="48.36771" lon="-0.07726">
        <ele>55</ele>
        <time>2018-09-22T08:51:48Z</time>
      </trkpt>
      <trkpt lat="48.36772" lon="-0.07729">
        <ele>54</ele>
        <time>2018-09-22T08:51:51Z</time>
      </trkpt>
      <trkpt lat="48.36771" lon="-0.07732">
        <ele>54</ele>
        <time>2018-09-22T08:51:53Z</time>
      </trkpt>
      <trkpt lat="48.3677" lon="-0.07735">
        <ele>54</ele>
        <time>2018-09-22T08:51:56Z</time>
      </trkpt>
      <trkpt lat="48.36768" lon="-0.07736">
        <ele>54</ele>
        <time>2018-09-22T08:51:59Z</time>
      </trkpt>
      <trkpt lat="48.36769" lon="-0.07736">
        <ele>55</ele>
        <time>2018-09-22T08:52:34Z</time>
      </trkpt>
      <trkpt lat="48.36773" lon="-0.07737">
        <ele>56</ele>
        <time>2018-09-22T08:53:02Z</time>
      </trkpt>
      <trkpt lat="48.36775" lon="-0.07738">
        <ele>56</ele>
        <time>2018-09-22T08:53:04Z</time>
      </trkpt>
      <trkpt lat="48.36777" lon="-0.07739">
        <ele>56</ele>
        <time>2018-09-22T08:53:06Z</time>
      </trkpt>
      <trkpt lat="48.3678" lon="-0.0774">
        <ele>56</ele>
        <time>2018-09-22T08:53:10Z</time>
      </trkpt>
      <trkpt lat="48.36782" lon="-0.07741">
        <ele>57</ele>
        <time>2018-09-22T08:53:12Z</time>
      </trkpt>
      <trkpt lat="48.36786" lon="-0.07742">
        <ele>57</ele>
        <time>2018-09-22T08:53:17Z</time>
      </trkpt>
      <trkpt lat="48.36789" lon="-0.07742">
        <ele>58</ele>
        <time>2018-09-22T08:53:20Z</time>
      </trkpt>
      <trkpt lat="48.36811" lon="-0.07745">
        <ele>67</ele>
        <time>2018-09-22T08:53:50Z</time>
      </trkpt>
      <trkpt lat="48.36813" lon="-0.07746">
        <ele>67</ele>
        <time>2018-09-22T08:53:54Z</time>
      </trkpt>
      <trkpt lat="48.36823" lon="-0.07747">
        <ele>66</ele>
        <time>2018-09-22T08:54:05Z</time>
      </trkpt>
      <trkpt lat="48.36857" lon="-0.07749">
        <ele>64</ele>
        <time>2018-09-22T08:54:38Z</time>
      </trkpt>
      <trkpt lat="48.36888" lon="-0.07751">
        <ele>55</ele>
        <time>2018-09-22T08:55:07Z</time>
      </trkpt>
      <trkpt lat="48.36893" lon="-0.07753">
        <ele>51</ele>
        <time>2018-09-22T08:55:14Z</time>
      </trkpt>
      <trkpt lat="48.36902" lon="-0.07748">
        <ele>51</ele>
        <time>2018-09-22T08:55:59Z</time>
      </trkpt>
      <trkpt lat="48.36904" lon="-0.07744">
        <ele>54</ele>
        <time>2018-09-22T08:56:06Z</time>
      </trkpt>
      <trkpt lat="48.36906" lon="-0.07743">
        <ele>57</ele>
        <time>2018-09-22T08:56:46Z</time>
      </trkpt>
      <trkpt lat="48.3691" lon="-0.07742">
        <ele>55</ele>
        <time>2018-09-22T08:56:52Z</time>
      </trkpt>
      <trkpt lat="48.36912" lon="-0.07738">
        <ele>53</ele>
        <time>2018-09-22T08:56:56Z</time>
      </trkpt>
      <trkpt lat="48.36917" lon="-0.07732">
        <ele>48</ele>
        <time>2018-09-22T08:57:04Z</time>
      </trkpt>
      <trkpt lat="48.3692" lon="-0.0773">
        <ele>43</ele>
        <time>2018-09-22T08:57:12Z</time>
      </trkpt>
      <trkpt lat="48.36944" lon="-0.07706">
        <ele>43</ele>
        <time>2018-09-22T08:57:45Z</time>
      </trkpt>
      <trkpt lat="48.36967" lon="-0.07674">
        <ele>41</ele>
        <time>2018-09-22T08:58:12Z</time>
      </trkpt>
      <trkpt lat="48.36968" lon="-0.07668">
        <ele>40</ele>
        <time>2018-09-22T08:58:16Z</time>
      </trkpt>
      <trkpt lat="48.36974" lon="-0.07654">
        <ele>38</ele>
        <time>2018-09-22T08:58:27Z</time>
      </trkpt>
      <trkpt lat="48.36979" lon="-0.0764">
        <ele>39</ele>
        <time>2018-09-22T08:58:37Z</time>
      </trkpt>
      <trkpt lat="48.36982" lon="-0.07631">
        <ele>43</ele>
        <time>2018-09-22T08:58:45Z</time>
      </trkpt>
      <trkpt lat="48.36979" lon="-0.07595">
        <ele>54</ele>
        <time>2018-09-22T08:59:16Z</time>
      </trkpt>
      <trkpt lat="48.36978" lon="-0.07589">
        <ele>55</ele>
        <time>2018-09-22T08:59:22Z</time>
      </trkpt>
      <trkpt lat="48.36982" lon="-0.07579">
        <ele>58</ele>
        <time>2018-09-22T08:59:30Z</time>
      </trkpt>
      <trkpt lat="48.3699" lon="-0.07559">
        <ele>61</ele>
        <time>2018-09-22T08:59:47Z</time>
      </trkpt>
      <trkpt lat="48.36989" lon="-0.07555">
        <ele>64</ele>
        <time>2018-09-22T08:59:53Z</time>
      </trkpt>
      <trkpt lat="48.36991" lon="-0.07551">
        <ele>67</ele>
        <time>2018-09-22T09:00:04Z</time>
      </trkpt>
      <trkpt lat="48.36996" lon="-0.07538">
        <ele>77</ele>
        <time>2018-09-22T09:00:27Z</time>
      </trkpt>
      <trkpt lat="48.36992" lon="-0.07529">
        <ele>84</ele>
        <time>2018-09-22T09:00:50Z</time>
      </trkpt>
      <trkpt lat="48.36992" lon="-0.07526">
        <ele>83</ele>
        <time>2018-09-22T09:00:54Z</time>
      </trkpt>
      <trkpt lat="48.36989" lon="-0.07511">
        <ele>82</ele>
        <time>2018-09-22T09:01:20Z</time>
      </trkpt>
      <trkpt lat="48.3699" lon="-0.07507">
        <ele>80</ele>
        <time>2018-09-22T09:01:23Z</time>
      </trkpt>
      <trkpt lat="48.3699" lon="-0.07503">
        <ele>80</ele>
        <time>2018-09-22T09:01:32Z</time>
      </trkpt>
      <trkpt lat="48.36991" lon="-0.07495">
        <ele>82</ele>
        <time>2018-09-22T09:01:43Z</time>
      </trkpt>
      <trkpt lat="48.36993" lon="-0.07492">
        <ele>84</ele>
        <time>2018-09-22T09:01:50Z</time>
      </trkpt>
      <trkpt lat="48.36996" lon="-0.0749">
        <ele>84</ele>
        <time>2018-09-22T09:01:56Z</time>
      </trkpt>
      <trkpt lat="48.37002" lon="-0.0748">
        <ele>87</ele>
        <time>2018-09-22T09:02:11Z</time>
      </trkpt>
      <trkpt lat="48.37009" lon="-0.07477">
        <ele>88</ele>
        <time>2018-09-22T09:02:17Z</time>
      </trkpt>
      <trkpt lat="48.37012" lon="-0.07476">
        <ele>89</ele>
        <time>2018-09-22T09:02:21Z</time>
      </trkpt>
      <trkpt lat="48.37014" lon="-0.07472">
        <ele>91</ele>
        <time>2018-09-22T09:02:25Z</time>
      </trkpt>
      <trkpt lat="48.37016" lon="-0.07469">
        <ele>91</ele>
        <time>2018-09-22T09:02:32Z</time>
      </trkpt>
      <trkpt lat="48.37045" lon="-0.0746">
        <ele>93</ele>
        <time>2018-09-22T09:03:04Z</time>
      </trkpt>
      <trkpt lat="48.37062" lon="-0.07451">
        <ele>97</ele>
        <time>2018-09-22T09:03:23Z</time>
      </trkpt>
      <trkpt lat="48.37082" lon="-0.07432">
        <ele>100</ele>
        <time>2018-09-22T09:03:54Z</time>
      </trkpt>
      <trkpt lat="48.371" lon="-0.07415">
        <ele>102</ele>
        <time>2018-09-22T09:04:17Z</time>
      </trkpt>
      <trkpt lat="48.37121" lon="-0.07389">
        <ele>98</ele>
        <time>2018-09-22T09:04:48Z</time>
      </trkpt>
      <trkpt lat="48.37124" lon="-0.07386">
        <ele>97</ele>
        <time>2018-09-22T09:04:52Z</time>
      </trkpt>
      <trkpt lat="48.37126" lon="-0.07377">
        <ele>94</ele>
        <time>2018-09-22T09:04:58Z</time>
      </trkpt>
      <trkpt lat="48.37122" lon="-0.07344">
        <ele>92</ele>
        <time>2018-09-22T09:05:28Z</time>
      </trkpt>
      <trkpt lat="48.37115" lon="-0.07313">
        <ele>87</ele>
        <time>2018-09-22T09:06:02Z</time>
      </trkpt>
      <trkpt lat="48.3711" lon="-0.07305">
        <ele>87</ele>
        <time>2018-09-22T09:06:14Z</time>
      </trkpt>
      <trkpt lat="48.37106" lon="-0.0728">
        <ele>92</ele>
        <time>2018-09-22T09:06:37Z</time>
      </trkpt>
      <trkpt lat="48.37104" lon="-0.07277">
        <ele>92</ele>
        <time>2018-09-22T09:06:40Z</time>
      </trkpt>
      <trkpt lat="48.37098" lon="-0.07262">
        <ele>99</ele>
        <time>2018-09-22T09:06:51Z</time>
      </trkpt>
      <trkpt lat="48.37096" lon="-0.07248">
        <ele>102</ele>
        <time>2018-09-22T09:07:03Z</time>
      </trkpt>
      <trkpt lat="48.37095" lon="-0.0724">
        <ele>103</ele>
        <time>2018-09-22T09:07:11Z</time>
      </trkpt>
      <trkpt lat="48.37095" lon="-0.0723">
        <ele>103</ele>
        <time>2018-09-22T09:07:21Z</time>
      </trkpt>
      <trkpt lat="48.37096" lon="-0.07217">
        <ele>103</ele>
        <time>2018-09-22T09:08:44Z</time>
      </trkpt>
      <trkpt lat="48.37092" lon="-0.07216">
        <ele>103</ele>
        <time>2018-09-22T09:09:55Z</time>
      </trkpt>
      <trkpt lat="48.37094" lon="-0.07212">
        <ele>103</ele>
        <time>2018-09-22T09:10:33Z</time>
      </trkpt>
      <trkpt lat="48.37096" lon="-0.07207">
        <ele>103</ele>
        <time>2018-09-22T09:10:45Z</time>
      </trkpt>
      <trkpt lat="48.37118" lon="-0.07197">
        <ele>90</ele>
        <time>2018-09-22T09:11:16Z</time>
      </trkpt>
      <trkpt lat="48.37121" lon="-0.07197">
        <ele>87</ele>
        <time>2018-09-22T09:11:28Z</time>
      </trkpt>
      <trkpt lat="48.37132" lon="-0.07196">
        <ele>87</ele>
        <time>2018-09-22T09:11:40Z</time>
      </trkpt>
      <trkpt lat="48.37152" lon="-0.07198">
        <ele>99</ele>
        <time>2018-09-22T09:12:04Z</time>
      </trkpt>
      <trkpt lat="48.37155" lon="-0.07201">
        <ele>99</ele>
        <time>2018-09-22T09:12:08Z</time>
      </trkpt>
      <trkpt lat="48.37158" lon="-0.07205">
        <ele>99</ele>
        <time>2018-09-22T09:12:13Z</time>
      </trkpt>
      <trkpt lat="48.37168" lon="-0.07217">
        <ele>99</ele>
        <time>2018-09-22T09:12:24Z</time>
      </trkpt>
      <trkpt lat="48.3717" lon="-0.0722">
        <ele>99</ele>
        <time>2018-09-22T09:12:27Z</time>
      </trkpt>
      <trkpt lat="48.37178" lon="-0.07223">
        <ele>99</ele>
        <time>2018-09-22T09:12:32Z</time>
      </trkpt>
      <trkpt lat="48.37186" lon="-0.07223">
        <ele>99</ele>
        <time>2018-09-22T09:12:38Z</time>
      </trkpt>
      <trkpt lat="48.37222" lon="-0.07214">
        <ele>101</ele>
        <time>2018-09-22T09:13:08Z</time>
      </trkpt>
      <trkpt lat="48.37261" lon="-0.07204">
        <ele>100</ele>
        <time>2018-09-22T09:13:40Z</time>
      </trkpt>
      <trkpt lat="48.37282" lon="-0.0719">
        <ele>102</ele>
        <time>2018-09-22T09:13:58Z</time>
      </trkpt>
      <trkpt lat="48.37299" lon="-0.07169">
        <ele>104</ele>
        <time>2018-09-22T09:14:18Z</time>
      </trkpt>
      <trkpt lat="48.37317" lon="-0.07126">
        <ele>112</ele>
        <time>2018-09-22T09:14:50Z</time>
      </trkpt>
      <trkpt lat="48.37342" lon="-0.07093">
        <ele>115</ele>
        <time>2018-09-22T09:15:20Z</time>
      </trkpt>
      <trkpt lat="48.37377" lon="-0.07066">
        <ele>114</ele>
        <time>2018-09-22T09:15:50Z</time>
      </trkpt>
      <trkpt lat="48.37388" lon="-0.07048">
        <ele>114</ele>
        <time>2018-09-22T09:16:05Z</time>
      </trkpt>
      <trkpt lat="48.37401" lon="-0.07032">
        <ele>113</ele>
        <time>2018-09-22T09:16:20Z</time>
      </trkpt>
      <trkpt lat="48.37429" lon="-0.07009">
        <ele>107</ele>
        <time>2018-09-22T09:16:52Z</time>
      </trkpt>
      <trkpt lat="48.37451" lon="-0.06994">
        <ele>111</ele>
        <time>2018-09-22T09:17:14Z</time>
      </trkpt>
      <trkpt lat="48.37455" lon="-0.06977">
        <ele>114</ele>
        <time>2018-09-22T09:17:22Z</time>
      </trkpt>
      <trkpt lat="48.37458" lon="-0.06967">
        <ele>115</ele>
        <time>2018-09-22T09:17:26Z</time>
      </trkpt>
      <trkpt lat="48.37463" lon="-0.06934">
        <ele>118</ele>
        <time>2018-09-22T09:17:45Z</time>
      </trkpt>
      <trkpt lat="48.37463" lon="-0.06924">
        <ele>118</ele>
        <time>2018-09-22T09:17:53Z</time>
      </trkpt>
      <trkpt lat="48.37463" lon="-0.0692">
        <ele>119</ele>
        <time>2018-09-22T09:17:56Z</time>
      </trkpt>
      <trkpt lat="48.37464" lon="-0.06915">
        <ele>120</ele>
        <time>2018-09-22T09:18:00Z</time>
      </trkpt>
      <trkpt lat="48.37467" lon="-0.06907">
        <ele>121</ele>
        <time>2018-09-22T09:18:06Z</time>
      </trkpt>
      <trkpt lat="48.37468" lon="-0.06903">
        <ele>121</ele>
        <time>2018-09-22T09:18:09Z</time>
      </trkpt>
      <trkpt lat="48.37469" lon="-0.069">
        <ele>122</ele>
        <time>2018-09-22T09:18:14Z</time>
      </trkpt>
      <trkpt lat="48.37479" lon="-0.06851">
        <ele>121</ele>
        <time>2018-09-22T09:18:44Z</time>
      </trkpt>
      <trkpt lat="48.37489" lon="-0.068">
        <ele>129</ele>
        <time>2018-09-22T09:19:14Z</time>
      </trkpt>
      <trkpt lat="48.37497" lon="-0.06768">
        <ele>130</ele>
        <time>2018-09-22T09:19:36Z</time>
      </trkpt>
      <trkpt lat="48.37502" lon="-0.06757">
        <ele>129</ele>
        <time>2018-09-22T09:19:45Z</time>
      </trkpt>
      <trkpt lat="48.37507" lon="-0.06751">
        <ele>127</ele>
        <time>2018-09-22T09:19:53Z</time>
      </trkpt>
      <trkpt lat="48.37506" lon="-0.06749">
        <ele>127</ele>
        <time>2018-09-22T09:20:21Z</time>
      </trkpt>
      <trkpt lat="48.37509" lon="-0.0674">
        <ele>127</ele>
        <time>2018-09-22T09:21:59Z</time>
      </trkpt>
      <trkpt lat="48.37512" lon="-0.06738">
        <ele>127</ele>
        <time>2018-09-22T09:22:05Z</time>
      </trkpt>
      <trkpt lat="48.37518" lon="-0.06738">
        <ele>123</ele>
        <time>2018-09-22T09:22:17Z</time>
      </trkpt>
      <trkpt lat="48.37543" lon="-0.0673">
        <ele>114</ele>
        <time>2018-09-22T09:22:43Z</time>
      </trkpt>
      <trkpt lat="48.37546" lon="-0.0673">
        <ele>112</ele>
        <time>2018-09-22T09:22:47Z</time>
      </trkpt>
      <trkpt lat="48.3755" lon="-0.0673">
        <ele>112</ele>
        <time>2018-09-22T09:22:49Z</time>
      </trkpt>
      <trkpt lat="48.37554" lon="-0.06728">
        <ele>113</ele>
        <time>2018-09-22T09:22:52Z</time>
      </trkpt>
      <trkpt lat="48.37557" lon="-0.06726">
        <ele>113</ele>
        <time>2018-09-22T09:22:55Z</time>
      </trkpt>
      <trkpt lat="48.3756" lon="-0.06723">
        <ele>113</ele>
        <time>2018-09-22T09:22:58Z</time>
      </trkpt>
      <trkpt lat="48.37562" lon="-0.06719">
        <ele>113</ele>
        <time>2018-09-22T09:23:01Z</time>
      </trkpt>
      <trkpt lat="48.37562" lon="-0.06714">
        <ele>112</ele>
        <time>2018-09-22T09:23:03Z</time>
      </trkpt>
      <trkpt lat="48.37561" lon="-0.06698">
        <ele>114</ele>
        <time>2018-09-22T09:23:10Z</time>
      </trkpt>
      <trkpt lat="48.37541" lon="-0.06654">
        <ele>120</ele>
        <time>2018-09-22T09:23:40Z</time>
      </trkpt>
      <trkpt lat="48.37537" lon="-0.06646">
        <ele>120</ele>
        <time>2018-09-22T09:23:45Z</time>
      </trkpt>
      <trkpt lat="48.37527" lon="-0.0662">
        <ele>120</ele>
        <time>2018-09-22T09:24:03Z</time>
      </trkpt>
      <trkpt lat="48.37526" lon="-0.06615">
        <ele>120</ele>
        <time>2018-09-22T09:24:06Z</time>
      </trkpt>
      <trkpt lat="48.37516" lon="-0.06589">
        <ele>124</ele>
        <time>2018-09-22T09:24:23Z</time>
      </trkpt>
      <trkpt lat="48.37515" lon="-0.06585">
        <ele>124</ele>
        <time>2018-09-22T09:24:26Z</time>
      </trkpt>
      <trkpt lat="48.37512" lon="-0.06581">
        <ele>124</ele>
        <time>2018-09-22T09:24:29Z</time>
      </trkpt>
      <trkpt lat="48.3751" lon="-0.06579">
        <ele>125</ele>
        <time>2018-09-22T09:24:32Z</time>
      </trkpt>
      <trkpt lat="48.37494" lon="-0.06555">
        <ele>135</ele>
        <time>2018-09-22T09:25:03Z</time>
      </trkpt>
      <trkpt lat="48.37487" lon="-0.06541">
        <ele>137</ele>
        <time>2018-09-22T09:25:17Z</time>
      </trkpt>
      <trkpt lat="48.37473" lon="-0.06497">
        <ele>141</ele>
        <time>2018-09-22T09:25:47Z</time>
      </trkpt>
      <trkpt lat="48.37466" lon="-0.06471">
        <ele>141</ele>
        <time>2018-09-22T09:26:05Z</time>
      </trkpt>
      <trkpt lat="48.37465" lon="-0.06461">
        <ele>141</ele>
        <time>2018-09-22T09:26:11Z</time>
      </trkpt>
      <trkpt lat="48.37462" lon="-0.06433">
        <ele>135</ele>
        <time>2018-09-22T09:26:26Z</time>
      </trkpt>
      <trkpt lat="48.37462" lon="-0.06428">
        <ele>135</ele>
        <time>2018-09-22T09:26:29Z</time>
      </trkpt>
      <trkpt lat="48.3746" lon="-0.06412">
        <ele>134</ele>
        <time>2018-09-22T09:26:37Z</time>
      </trkpt>
      <trkpt lat="48.37459" lon="-0.06407">
        <ele>133</ele>
        <time>2018-09-22T09:26:39Z</time>
      </trkpt>
      <trkpt lat="48.3746" lon="-0.06396">
        <ele>132</ele>
        <time>2018-09-22T09:26:45Z</time>
      </trkpt>
      <trkpt lat="48.37459" lon="-0.06391">
        <ele>132</ele>
        <time>2018-09-22T09:26:48Z</time>
      </trkpt>
      <trkpt lat="48.37457" lon="-0.06372">
        <ele>133</ele>
        <time>2018-09-22T09:27:02Z</time>
      </trkpt>
      <trkpt lat="48.37457" lon="-0.06367">
        <ele>134</ele>
        <time>2018-09-22T09:27:06Z</time>
      </trkpt>
      <trkpt lat="48.37459" lon="-0.06347">
        <ele>133</ele>
        <time>2018-09-22T09:27:19Z</time>
      </trkpt>
      <trkpt lat="48.3746" lon="-0.06323">
        <ele>134</ele>
        <time>2018-09-22T09:27:32Z</time>
      </trkpt>
      <trkpt lat="48.37461" lon="-0.06319">
        <ele>135</ele>
        <time>2018-09-22T09:27:35Z</time>
      </trkpt>
      <trkpt lat="48.37455" lon="-0.06288">
        <ele>140</ele>
        <time>2018-09-22T09:27:52Z</time>
      </trkpt>
      <trkpt lat="48.37455" lon="-0.06283">
        <ele>141</ele>
        <time>2018-09-22T09:27:55Z</time>
      </trkpt>
      <trkpt lat="48.37452" lon="-0.06267">
        <ele>143</ele>
        <time>2018-09-22T09:28:07Z</time>
      </trkpt>
      <trkpt lat="48.37451" lon="-0.06263">
        <ele>143</ele>
        <time>2018-09-22T09:28:10Z</time>
      </trkpt>
      <trkpt lat="48.3745" lon="-0.06252">
        <ele>144</ele>
        <time>2018-09-22T09:28:18Z</time>
      </trkpt>
      <trkpt lat="48.37448" lon="-0.06247">
        <ele>146</ele>
        <time>2018-09-22T09:28:22Z</time>
      </trkpt>
      <trkpt lat="48.37449" lon="-0.06234">
        <ele>146</ele>
        <time>2018-09-22T09:28:30Z</time>
      </trkpt>
      <trkpt lat="48.37455" lon="-0.06213">
        <ele>140</ele>
        <time>2018-09-22T09:28:46Z</time>
      </trkpt>
      <trkpt lat="48.37465" lon="-0.06198">
        <ele>137</ele>
        <time>2018-09-22T09:28:58Z</time>
      </trkpt>
      <trkpt lat="48.37472" lon="-0.06184">
        <ele>137</ele>
        <time>2018-09-22T09:29:08Z</time>
      </trkpt>
      <trkpt lat="48.37473" lon="-0.06179">
        <ele>136</ele>
        <time>2018-09-22T09:29:10Z</time>
      </trkpt>
      <trkpt lat="48.37482" lon="-0.0616">
        <ele>136</ele>
        <time>2018-09-22T09:29:23Z</time>
      </trkpt>
      <trkpt lat="48.37482" lon="-0.06155">
        <ele>135</ele>
        <time>2018-09-22T09:29:25Z</time>
      </trkpt>
      <trkpt lat="48.37483" lon="-0.0615">
        <ele>135</ele>
        <time>2018-09-22T09:29:28Z</time>
      </trkpt>
      <trkpt lat="48.37495" lon="-0.06127">
        <ele>132</ele>
        <time>2018-09-22T09:29:46Z</time>
      </trkpt>
      <trkpt lat="48.37496" lon="-0.06114">
        <ele>130</ele>
        <time>2018-09-22T09:29:52Z</time>
      </trkpt>
      <trkpt lat="48.37505" lon="-0.06099">
        <ele>129</ele>
        <time>2018-09-22T09:30:03Z</time>
      </trkpt>
      <trkpt lat="48.37506" lon="-0.06092">
        <ele>130</ele>
        <time>2018-09-22T09:30:06Z</time>
      </trkpt>
      <trkpt lat="48.37509" lon="-0.06086">
        <ele>128</ele>
        <time>2018-09-22T09:30:10Z</time>
      </trkpt>
      <trkpt lat="48.37511" lon="-0.06081">
        <ele>127</ele>
        <time>2018-09-22T09:30:16Z</time>
      </trkpt>
      <trkpt lat="48.37512" lon="-0.06072">
        <ele>124</ele>
        <time>2018-09-22T09:30:22Z</time>
      </trkpt>
      <trkpt lat="48.37516" lon="-0.06069">
        <ele>123</ele>
        <time>2018-09-22T09:30:25Z</time>
      </trkpt>
      <trkpt lat="48.37523" lon="-0.06059">
        <ele>123</ele>
        <time>2018-09-22T09:30:31Z</time>
      </trkpt>
      <trkpt lat="48.37524" lon="-0.06054">
        <ele>123</ele>
        <time>2018-09-22T09:30:33Z</time>
      </trkpt>
      <trkpt lat="48.37528" lon="-0.06044">
        <ele>122</ele>
        <time>2018-09-22T09:30:40Z</time>
      </trkpt>
      <trkpt lat="48.3753" lon="-0.06019">
        <ele>123</ele>
        <time>2018-09-22T09:30:49Z</time>
      </trkpt>
      <trkpt lat="48.37533" lon="-0.05992">
        <ele>126</ele>
        <time>2018-09-22T09:31:04Z</time>
      </trkpt>
      <trkpt lat="48.37533" lon="-0.05986">
        <ele>124</ele>
        <time>2018-09-22T09:31:08Z</time>
      </trkpt>
      <trkpt lat="48.37542" lon="-0.05974">
        <ele>123</ele>
        <time>2018-09-22T09:31:22Z</time>
      </trkpt>
      <trkpt lat="48.37567" lon="-0.05958">
        <ele>123</ele>
        <time>2018-09-22T09:31:40Z</time>
      </trkpt>
      <trkpt lat="48.3757" lon="-0.05954">
        <ele>122</ele>
        <time>2018-09-22T09:31:43Z</time>
      </trkpt>
      <trkpt lat="48.37572" lon="-0.05951">
        <ele>121</ele>
        <time>2018-09-22T09:31:46Z</time>
      </trkpt>
      <trkpt lat="48.37574" lon="-0.05946">
        <ele>121</ele>
        <time>2018-09-22T09:31:49Z</time>
      </trkpt>
      <trkpt lat="48.37577" lon="-0.05942">
        <ele>121</ele>
        <time>2018-09-22T09:31:52Z</time>
      </trkpt>
      <trkpt lat="48.37578" lon="-0.05937">
        <ele>122</ele>
        <time>2018-09-22T09:31:55Z</time>
      </trkpt>
      <trkpt lat="48.37587" lon="-0.05914">
        <ele>120</ele>
        <time>2018-09-22T09:32:11Z</time>
      </trkpt>
      <trkpt lat="48.3759" lon="-0.0591">
        <ele>119</ele>
        <time>2018-09-22T09:32:14Z</time>
      </trkpt>
      <trkpt lat="48.37596" lon="-0.05902">
        <ele>119</ele>
        <time>2018-09-22T09:32:20Z</time>
      </trkpt>
      <trkpt lat="48.37603" lon="-0.0589">
        <ele>118</ele>
        <time>2018-09-22T09:32:28Z</time>
      </trkpt>
      <trkpt lat="48.37605" lon="-0.05885">
        <ele>117</ele>
        <time>2018-09-22T09:32:32Z</time>
      </trkpt>
      <trkpt lat="48.37614" lon="-0.05875">
        <ele>112</ele>
        <time>2018-09-22T09:32:43Z</time>
      </trkpt>
      <trkpt lat="48.37617" lon="-0.05869">
        <ele>112</ele>
        <time>2018-09-22T09:32:46Z</time>
      </trkpt>
      <trkpt lat="48.37621" lon="-0.0586">
        <ele>113</ele>
        <time>2018-09-22T09:32:53Z</time>
      </trkpt>
      <trkpt lat="48.37624" lon="-0.05855">
        <ele>113</ele>
        <time>2018-09-22T09:32:56Z</time>
      </trkpt>
      <trkpt lat="48.3763" lon="-0.05848">
        <ele>113</ele>
        <time>2018-09-22T09:33:01Z</time>
      </trkpt>
      <trkpt lat="48.37638" lon="-0.05843">
        <ele>112</ele>
        <time>2018-09-22T09:33:08Z</time>
      </trkpt>
      <trkpt lat="48.37641" lon="-0.05841">
        <ele>111</ele>
        <time>2018-09-22T09:33:12Z</time>
      </trkpt>
      <trkpt lat="48.37676" lon="-0.05824">
        <ele>106</ele>
        <time>2018-09-22T09:33:42Z</time>
      </trkpt>
      <trkpt lat="48.37684" lon="-0.05823">
        <ele>106</ele>
        <time>2018-09-22T09:33:48Z</time>
      </trkpt>
      <trkpt lat="48.37687" lon="-0.05822">
        <ele>105</ele>
        <time>2018-09-22T09:33:51Z</time>
      </trkpt>
      <trkpt lat="48.3769" lon="-0.05821">
        <ele>105</ele>
        <time>2018-09-22T09:33:54Z</time>
      </trkpt>
      <trkpt lat="48.37692" lon="-0.05825">
        <ele>102</ele>
        <time>2018-09-22T09:34:15Z</time>
      </trkpt>
      <trkpt lat="48.37694" lon="-0.05828">
        <ele>100</ele>
        <time>2018-09-22T09:34:29Z</time>
      </trkpt>
      <trkpt lat="48.37697" lon="-0.05826">
        <ele>102</ele>
        <time>2018-09-22T09:35:08Z</time>
      </trkpt>
      <trkpt lat="48.37695" lon="-0.05821">
        <ele>103</ele>
        <time>2018-09-22T09:35:13Z</time>
      </trkpt>
      <trkpt lat="48.37704" lon="-0.05813">
        <ele>108</ele>
        <time>2018-09-22T09:35:24Z</time>
      </trkpt>
      <trkpt lat="48.3771" lon="-0.05807">
        <ele>107</ele>
        <time>2018-09-22T09:35:30Z</time>
      </trkpt>
      <trkpt lat="48.37719" lon="-0.05791">
        <ele>104</ele>
        <time>2018-09-22T09:35:44Z</time>
      </trkpt>
      <trkpt lat="48.37733" lon="-0.05774">
        <ele>100</ele>
        <time>2018-09-22T09:35:57Z</time>
      </trkpt>
      <trkpt lat="48.37736" lon="-0.05765">
        <ele>99</ele>
        <time>2018-09-22T09:36:03Z</time>
      </trkpt>
      <trkpt lat="48.37737" lon="-0.0576">
        <ele>98</ele>
        <time>2018-09-22T09:36:06Z</time>
      </trkpt>
      <trkpt lat="48.37738" lon="-0.05754">
        <ele>97</ele>
        <time>2018-09-22T09:36:09Z</time>
      </trkpt>
      <trkpt lat="48.3774" lon="-0.05737">
        <ele>95</ele>
        <time>2018-09-22T09:36:17Z</time>
      </trkpt>
      <trkpt lat="48.37742" lon="-0.05727">
        <ele>95</ele>
        <time>2018-09-22T09:36:21Z</time>
      </trkpt>
      <trkpt lat="48.37751" lon="-0.05692">
        <ele>95</ele>
        <time>2018-09-22T09:36:41Z</time>
      </trkpt>
      <trkpt lat="48.37752" lon="-0.0568">
        <ele>91</ele>
        <time>2018-09-22T09:36:49Z</time>
      </trkpt>
      <trkpt lat="48.37752" lon="-0.05675">
        <ele>89</ele>
        <time>2018-09-22T09:36:51Z</time>
      </trkpt>
      <trkpt lat="48.37752" lon="-0.05667">
        <ele>91</ele>
        <time>2018-09-22T09:37:00Z</time>
      </trkpt>
      <trkpt lat="48.37748" lon="-0.05654">
        <ele>94</ele>
        <time>2018-09-22T09:37:37Z</time>
      </trkpt>
      <trkpt lat="48.37745" lon="-0.05653">
        <ele>95</ele>
        <time>2018-09-22T09:37:40Z</time>
      </trkpt>
      <trkpt lat="48.37745" lon="-0.05648">
        <ele>95</ele>
        <time>2018-09-22T09:37:55Z</time>
      </trkpt>
      <trkpt lat="48.37748" lon="-0.0565">
        <ele>97</ele>
        <time>2018-09-22T09:38:46Z</time>
      </trkpt>
      <trkpt lat="48.37747" lon="-0.05654">
        <ele>97</ele>
        <time>2018-09-22T09:38:50Z</time>
      </trkpt>
      <trkpt lat="48.37749" lon="-0.05658">
        <ele>100</ele>
        <time>2018-09-22T09:38:56Z</time>
      </trkpt>
      <trkpt lat="48.3777" lon="-0.05668">
        <ele>103</ele>
        <time>2018-09-22T09:39:20Z</time>
      </trkpt>
      <trkpt lat="48.37795" lon="-0.05684">
        <ele>99</ele>
        <time>2018-09-22T09:39:42Z</time>
      </trkpt>
      <trkpt lat="48.37816" lon="-0.05698">
        <ele>85</ele>
        <time>2018-09-22T09:40:03Z</time>
      </trkpt>
      <trkpt lat="48.37824" lon="-0.05703">
        <ele>83</ele>
        <time>2018-09-22T09:40:11Z</time>
      </trkpt>
      <trkpt lat="48.37854" lon="-0.05734">
        <ele>81</ele>
        <time>2018-09-22T09:40:42Z</time>
      </trkpt>
      <trkpt lat="48.37885" lon="-0.05745">
        <ele>75</ele>
        <time>2018-09-22T09:41:14Z</time>
      </trkpt>
      <trkpt lat="48.37892" lon="-0.05747">
        <ele>65</ele>
        <time>2018-09-22T09:41:26Z</time>
      </trkpt>
      <trkpt lat="48.37927" lon="-0.05776">
        <ele>67</ele>
        <time>2018-09-22T09:41:58Z</time>
      </trkpt>
      <trkpt lat="48.37932" lon="-0.05778">
        <ele>68</ele>
        <time>2018-09-22T09:42:01Z</time>
      </trkpt>
      <trkpt lat="48.37941" lon="-0.05783">
        <ele>67</ele>
        <time>2018-09-22T09:42:13Z</time>
      </trkpt>
      <trkpt lat="48.37945" lon="-0.05789">
        <ele>67</ele>
        <time>2018-09-22T09:42:22Z</time>
      </trkpt>
      <trkpt lat="48.37978" lon="-0.05808">
        <ele>61</ele>
        <time>2018-09-22T09:42:51Z</time>
      </trkpt>
      <trkpt lat="48.37995" lon="-0.05814">
        <ele>60</ele>
        <time>2018-09-22T09:43:03Z</time>
      </trkpt>
      <trkpt lat="48.37999" lon="-0.05814">
        <ele>59</ele>
        <time>2018-09-22T09:43:08Z</time>
      </trkpt>
      <trkpt lat="48.38022" lon="-0.05811">
        <ele>53</ele>
        <time>2018-09-22T09:43:28Z</time>
      </trkpt>
      <trkpt lat="48.38032" lon="-0.05812">
        <ele>57</ele>
        <time>2018-09-22T09:43:33Z</time>
      </trkpt>
      <trkpt lat="48.38035" lon="-0.05814">
        <ele>58</ele>
        <time>2018-09-22T09:43:39Z</time>
      </trkpt>
      <trkpt lat="48.38038" lon="-0.05818">
        <ele>58</ele>
        <time>2018-09-22T09:43:46Z</time>
      </trkpt>
      <trkpt lat="48.38041" lon="-0.05822">
        <ele>57</ele>
        <time>2018-09-22T09:43:50Z</time>
      </trkpt>
      <trkpt lat="48.38043" lon="-0.05827">
        <ele>54</ele>
        <time>2018-09-22T09:43:54Z</time>
      </trkpt>
      <trkpt lat="48.38042" lon="-0.05833">
        <ele>53</ele>
        <time>2018-09-22T09:43:59Z</time>
      </trkpt>
      <trkpt lat="48.38046" lon="-0.0585">
        <ele>51</ele>
        <time>2018-09-22T09:44:10Z</time>
      </trkpt>
      <trkpt lat="48.38045" lon="-0.05855">
        <ele>50</ele>
        <time>2018-09-22T09:44:13Z</time>
      </trkpt>
      <trkpt lat="48.38046" lon="-0.05862">
        <ele>49</ele>
        <time>2018-09-22T09:44:17Z</time>
      </trkpt>
      <trkpt lat="48.3804" lon="-0.05869">
        <ele>49</ele>
        <time>2018-09-22T09:44:24Z</time>
      </trkpt>
      <trkpt lat="48.38039" lon="-0.05874">
        <ele>49</ele>
        <time>2018-09-22T09:44:29Z</time>
      </trkpt>
      <trkpt lat="48.38037" lon="-0.05879">
        <ele>50</ele>
        <time>2018-09-22T09:44:39Z</time>
      </trkpt>
      <trkpt lat="48.38041" lon="-0.05883">
        <ele>53</ele>
        <time>2018-09-22T09:44:49Z</time>
      </trkpt>
      <trkpt lat="48.38045" lon="-0.05886">
        <ele>56</ele>
        <time>2018-09-22T09:44:53Z</time>
      </trkpt>
      <trkpt lat="48.38051" lon="-0.05893">
        <ele>58</ele>
        <time>2018-09-22T09:45:00Z</time>
      </trkpt>
      <trkpt lat="48.38057" lon="-0.059">
        <ele>60</ele>
        <time>2018-09-22T09:45:07Z</time>
      </trkpt>
      <trkpt lat="48.3806" lon="-0.05903">
        <ele>60</ele>
        <time>2018-09-22T09:45:11Z</time>
      </trkpt>
      <trkpt lat="48.38074" lon="-0.0591">
        <ele>61</ele>
        <time>2018-09-22T09:45:30Z</time>
      </trkpt>
      <trkpt lat="48.38078" lon="-0.05912">
        <ele>61</ele>
        <time>2018-09-22T09:45:34Z</time>
      </trkpt>
      <trkpt lat="48.38085" lon="-0.05913">
        <ele>60</ele>
        <time>2018-09-22T09:45:41Z</time>
      </trkpt>
      <trkpt lat="48.38089" lon="-0.05914">
        <ele>59</ele>
        <time>2018-09-22T09:46:07Z</time>
      </trkpt>
      <trkpt lat="48.38098" lon="-0.05918">
        <ele>50</ele>
        <time>2018-09-22T09:46:19Z</time>
      </trkpt>
      <trkpt lat="48.38096" lon="-0.05914">
        <ele>43</ele>
        <time>2018-09-22T09:47:27Z</time>
      </trkpt>
      <trkpt lat="48.381" lon="-0.05916">
        <ele>45</ele>
        <time>2018-09-22T09:47:34Z</time>
      </trkpt>
      <trkpt lat="48.38108" lon="-0.0592">
        <ele>57</ele>
        <time>2018-09-22T09:48:18Z</time>
      </trkpt>
      <trkpt lat="48.38098" lon="-0.05924">
        <ele>61</ele>
        <time>2018-09-22T09:48:35Z</time>
      </trkpt>
      <trkpt lat="48.38095" lon="-0.05923">
        <ele>60</ele>
        <time>2018-09-22T09:48:37Z</time>
      </trkpt>
      <trkpt lat="48.38093" lon="-0.05916">
        <ele>60</ele>
        <time>2018-09-22T09:49:04Z</time>
      </trkpt>
      <trkpt lat="48.38089" lon="-0.05916">
        <ele>53</ele>
        <time>2018-09-22T09:49:30Z</time>
      </trkpt>
      <trkpt lat="48.38075" lon="-0.05913">
        <ele>48</ele>
        <time>2018-09-22T09:49:52Z</time>
      </trkpt>
      <trkpt lat="48.38072" lon="-0.05914">
        <ele>48</ele>
        <time>2018-09-22T09:49:56Z</time>
      </trkpt>
      <trkpt lat="48.38055" lon="-0.05915">
        <ele>60</ele>
        <time>2018-09-22T09:50:08Z</time>
      </trkpt>
      <trkpt lat="48.38049" lon="-0.05918">
        <ele>63</ele>
        <time>2018-09-22T09:50:15Z</time>
      </trkpt>
      <trkpt lat="48.38043" lon="-0.05921">
        <ele>62</ele>
        <time>2018-09-22T09:50:24Z</time>
      </trkpt>
      <trkpt lat="48.38029" lon="-0.05921">
        <ele>59</ele>
        <time>2018-09-22T09:50:38Z</time>
      </trkpt>
      <trkpt lat="48.38025" lon="-0.05925">
        <ele>59</ele>
        <time>2018-09-22T09:50:52Z</time>
      </trkpt>
      <trkpt lat="48.37995" lon="-0.05923">
        <ele>58</ele>
        <time>2018-09-22T09:51:23Z</time>
      </trkpt>
      <trkpt lat="48.37991" lon="-0.05922">
        <ele>55</ele>
        <time>2018-09-22T09:51:29Z</time>
      </trkpt>
      <trkpt lat="48.37987" lon="-0.05924">
        <ele>53</ele>
        <time>2018-09-22T09:51:33Z</time>
      </trkpt>
      <trkpt lat="48.37986" lon="-0.05928">
        <ele>51</ele>
        <time>2018-09-22T09:51:38Z</time>
      </trkpt>
      <trkpt lat="48.37986" lon="-0.0593">
        <ele>50</ele>
        <time>2018-09-22T09:52:04Z</time>
      </trkpt>
      <trkpt lat="48.37987" lon="-0.0594">
        <ele>47</ele>
        <time>2018-09-22T09:52:12Z</time>
      </trkpt>
      <trkpt lat="48.37986" lon="-0.05945">
        <ele>46</ele>
        <time>2018-09-22T09:52:49Z</time>
      </trkpt>
      <trkpt lat="48.37987" lon="-0.05957">
        <ele>59</ele>
        <time>2018-09-22T09:53:01Z</time>
      </trkpt>
      <trkpt lat="48.3799" lon="-0.05962">
        <ele>62</ele>
        <time>2018-09-22T09:53:07Z</time>
      </trkpt>
      <trkpt lat="48.37993" lon="-0.05964">
        <ele>60</ele>
        <time>2018-09-22T09:53:11Z</time>
      </trkpt>
      <trkpt lat="48.38004" lon="-0.05965">
        <ele>53</ele>
        <time>2018-09-22T09:53:24Z</time>
      </trkpt>
      <trkpt lat="48.38008" lon="-0.05964">
        <ele>52</ele>
        <time>2018-09-22T09:53:28Z</time>
      </trkpt>
      <trkpt lat="48.38014" lon="-0.05967">
        <ele>53</ele>
        <time>2018-09-22T09:53:46Z</time>
      </trkpt>
      <trkpt lat="48.38017" lon="-0.05968">
        <ele>55</ele>
        <time>2018-09-22T09:53:54Z</time>
      </trkpt>
      <trkpt lat="48.38018" lon="-0.05963">
        <ele>56</ele>
        <time>2018-09-22T09:54:00Z</time>
      </trkpt>
      <trkpt lat="48.3802" lon="-0.05958">
        <ele>56</ele>
        <time>2018-09-22T09:54:08Z</time>
      </trkpt>
      <trkpt lat="48.38022" lon="-0.05963">
        <ele>55</ele>
        <time>2018-09-22T09:54:20Z</time>
      </trkpt>
      <trkpt lat="48.38025" lon="-0.05964">
        <ele>55</ele>
        <time>2018-09-22T09:54:24Z</time>
      </trkpt>
      <trkpt lat="48.38026" lon="-0.05968">
        <ele>56</ele>
        <time>2018-09-22T09:54:46Z</time>
      </trkpt>
      <trkpt lat="48.38029" lon="-0.0597">
        <ele>56</ele>
        <time>2018-09-22T09:54:49Z</time>
      </trkpt>
      <trkpt lat="48.38051" lon="-0.05975">
        <ele>56</ele>
        <time>2018-09-22T09:55:18Z</time>
      </trkpt>
      <trkpt lat="48.38058" lon="-0.05979">
        <ele>56</ele>
        <time>2018-09-22T09:55:32Z</time>
      </trkpt>
      <trkpt lat="48.38062" lon="-0.0598">
        <ele>57</ele>
        <time>2018-09-22T09:55:41Z</time>
      </trkpt>
      <trkpt lat="48.38073" lon="-0.05984">
        <ele>62</ele>
        <time>2018-09-22T09:55:55Z</time>
      </trkpt>
      <trkpt lat="48.38087" lon="-0.05988">
        <ele>66</ele>
        <time>2018-09-22T09:56:08Z</time>
      </trkpt>
      <trkpt lat="48.38091" lon="-0.05988">
        <ele>65</ele>
        <time>2018-09-22T09:56:12Z</time>
      </trkpt>
      <trkpt lat="48.38101" lon="-0.05986">
        <ele>61</ele>
        <time>2018-09-22T09:56:25Z</time>
      </trkpt>
      <trkpt lat="48.38109" lon="-0.05986">
        <ele>57</ele>
        <time>2018-09-22T09:56:33Z</time>
      </trkpt>
      <trkpt lat="48.38112" lon="-0.05983">
        <ele>56</ele>
        <time>2018-09-22T09:56:37Z</time>
      </trkpt>
      <trkpt lat="48.38118" lon="-0.05976">
        <ele>56</ele>
        <time>2018-09-22T09:56:43Z</time>
      </trkpt>
      <trkpt lat="48.38123" lon="-0.05967">
        <ele>57</ele>
        <time>2018-09-22T09:56:51Z</time>
      </trkpt>
      <trkpt lat="48.38124" lon="-0.05962">
        <ele>57</ele>
        <time>2018-09-22T09:56:54Z</time>
      </trkpt>
      <trkpt lat="48.3812" lon="-0.05934">
        <ele>60</ele>
        <time>2018-09-22T09:57:12Z</time>
      </trkpt>
      <trkpt lat="48.38136" lon="-0.05923">
        <ele>59</ele>
        <time>2018-09-22T09:57:28Z</time>
      </trkpt>
      <trkpt lat="48.38139" lon="-0.0592">
        <ele>60</ele>
        <time>2018-09-22T09:57:31Z</time>
      </trkpt>
      <trkpt lat="48.38142" lon="-0.05917">
        <ele>59</ele>
        <time>2018-09-22T09:57:34Z</time>
      </trkpt>
      <trkpt lat="48.38154" lon="-0.05882">
        <ele>58</ele>
        <time>2018-09-22T09:58:00Z</time>
      </trkpt>
      <trkpt lat="48.38161" lon="-0.05871">
        <ele>56</ele>
        <time>2018-09-22T09:58:09Z</time>
      </trkpt>
      <trkpt lat="48.38166" lon="-0.05848">
        <ele>54</ele>
        <time>2018-09-22T09:58:23Z</time>
      </trkpt>
      <trkpt lat="48.38178" lon="-0.05816">
        <ele>56</ele>
        <time>2018-09-22T09:58:44Z</time>
      </trkpt>
      <trkpt lat="48.38189" lon="-0.05789">
        <ele>60</ele>
        <time>2018-09-22T09:59:17Z</time>
      </trkpt>
      <trkpt lat="48.38193" lon="-0.05775">
        <ele>56</ele>
        <time>2018-09-22T09:59:37Z</time>
      </trkpt>
      <trkpt lat="48.38199" lon="-0.05768">
        <ele>55</ele>
        <time>2018-09-22T10:00:04Z</time>
      </trkpt>
      <trkpt lat="48.38199" lon="-0.05759">
        <ele>57</ele>
        <time>2018-09-22T10:00:36Z</time>
      </trkpt>
      <trkpt lat="48.38204" lon="-0.05752">
        <ele>59</ele>
        <time>2018-09-22T10:00:45Z</time>
      </trkpt>
      <trkpt lat="48.38207" lon="-0.05754">
        <ele>59</ele>
        <time>2018-09-22T10:01:14Z</time>
      </trkpt>
      <trkpt lat="48.38228" lon="-0.05738">
        <ele>58</ele>
        <time>2018-09-22T10:01:38Z</time>
      </trkpt>
      <trkpt lat="48.38244" lon="-0.05731">
        <ele>62</ele>
        <time>2018-09-22T10:01:52Z</time>
      </trkpt>
      <trkpt lat="48.38247" lon="-0.05729">
        <ele>62</ele>
        <time>2018-09-22T10:01:55Z</time>
      </trkpt>
      <trkpt lat="48.38249" lon="-0.05727">
        <ele>63</ele>
        <time>2018-09-22T10:02:00Z</time>
      </trkpt>
      <trkpt lat="48.38252" lon="-0.05724">
        <ele>63</ele>
        <time>2018-09-22T10:02:23Z</time>
      </trkpt>
      <trkpt lat="48.38253" lon="-0.05712">
        <ele>64</ele>
        <time>2018-09-22T10:02:37Z</time>
      </trkpt>
      <trkpt lat="48.38262" lon="-0.0571">
        <ele>67</ele>
        <time>2018-09-22T10:02:59Z</time>
      </trkpt>
      <trkpt lat="48.38267" lon="-0.05709">
        <ele>67</ele>
        <time>2018-09-22T10:03:06Z</time>
      </trkpt>
      <trkpt lat="48.38275" lon="-0.05701">
        <ele>66</ele>
        <time>2018-09-22T10:03:16Z</time>
      </trkpt>
      <trkpt lat="48.3828" lon="-0.05696">
        <ele>63</ele>
        <time>2018-09-22T10:03:24Z</time>
      </trkpt>
      <trkpt lat="48.38284" lon="-0.05694">
        <ele>59</ele>
        <time>2018-09-22T10:03:28Z</time>
      </trkpt>
      <trkpt lat="48.38287" lon="-0.05692">
        <ele>57</ele>
        <time>2018-09-22T10:03:32Z</time>
      </trkpt>
      <trkpt lat="48.38289" lon="-0.05688">
        <ele>53</ele>
        <time>2018-09-22T10:03:36Z</time>
      </trkpt>
      <trkpt lat="48.38291" lon="-0.05684">
        <ele>53</ele>
        <time>2018-09-22T10:03:41Z</time>
      </trkpt>
      <trkpt lat="48.38293" lon="-0.05681">
        <ele>52</ele>
        <time>2018-09-22T10:03:45Z</time>
      </trkpt>
      <trkpt lat="48.38298" lon="-0.05672">
        <ele>57</ele>
        <time>2018-09-22T10:03:56Z</time>
      </trkpt>
      <trkpt lat="48.383" lon="-0.05663">
        <ele>58</ele>
        <time>2018-09-22T10:04:02Z</time>
      </trkpt>
      <trkpt lat="48.38299" lon="-0.05654">
        <ele>58</ele>
        <time>2018-09-22T10:04:08Z</time>
      </trkpt>
      <trkpt lat="48.38304" lon="-0.05606">
        <ele>56</ele>
        <time>2018-09-22T10:04:38Z</time>
      </trkpt>
      <trkpt lat="48.38306" lon="-0.05596">
        <ele>55</ele>
        <time>2018-09-22T10:04:44Z</time>
      </trkpt>
      <trkpt lat="48.38314" lon="-0.05573">
        <ele>55</ele>
        <time>2018-09-22T10:05:00Z</time>
      </trkpt>
      <trkpt lat="48.38316" lon="-0.05569">
        <ele>54</ele>
        <time>2018-09-22T10:05:03Z</time>
      </trkpt>
      <trkpt lat="48.38324" lon="-0.05552">
        <ele>55</ele>
        <time>2018-09-22T10:05:15Z</time>
      </trkpt>
      <trkpt lat="48.38326" lon="-0.05542">
        <ele>54</ele>
        <time>2018-09-22T10:05:22Z</time>
      </trkpt>
      <trkpt lat="48.38327" lon="-0.05523">
        <ele>55</ele>
        <time>2018-09-22T10:05:39Z</time>
      </trkpt>
      <trkpt lat="48.38329" lon="-0.05521">
        <ele>56</ele>
        <time>2018-09-22T10:05:49Z</time>
      </trkpt>
      <trkpt lat="48.38331" lon="-0.05518">
        <ele>56</ele>
        <time>2018-09-22T10:06:32Z</time>
      </trkpt>
      <trkpt lat="48.38325" lon="-0.05511">
        <ele>60</ele>
        <time>2018-09-22T10:06:53Z</time>
      </trkpt>
      <trkpt lat="48.3831" lon="-0.0547">
        <ele>59</ele>
        <time>2018-09-22T10:07:24Z</time>
      </trkpt>
      <trkpt lat="48.38307" lon="-0.05466">
        <ele>58</ele>
        <time>2018-09-22T10:07:27Z</time>
      </trkpt>
      <trkpt lat="48.38303" lon="-0.05457">
        <ele>56</ele>
        <time>2018-09-22T10:07:34Z</time>
      </trkpt>
      <trkpt lat="48.38279" lon="-0.05423">
        <ele>58</ele>
        <time>2018-09-22T10:08:01Z</time>
      </trkpt>
      <trkpt lat="48.38274" lon="-0.05415">
        <ele>59</ele>
        <time>2018-09-22T10:08:07Z</time>
      </trkpt>
      <trkpt lat="48.38271" lon="-0.05415">
        <ele>59</ele>
        <time>2018-09-22T10:08:10Z</time>
      </trkpt>
      <trkpt lat="48.38267" lon="-0.05416">
        <ele>62</ele>
        <time>2018-09-22T10:08:13Z</time>
      </trkpt>
      <trkpt lat="48.38257" lon="-0.05397">
        <ele>67</ele>
        <time>2018-09-22T10:08:41Z</time>
      </trkpt>
      <trkpt lat="48.38255" lon="-0.05394">
        <ele>68</ele>
        <time>2018-09-22T10:08:44Z</time>
      </trkpt>
      <trkpt lat="48.3824" lon="-0.05351">
        <ele>68</ele>
        <time>2018-09-22T10:09:15Z</time>
      </trkpt>
      <trkpt lat="48.38232" lon="-0.05336">
        <ele>68</ele>
        <time>2018-09-22T10:09:27Z</time>
      </trkpt>
      <trkpt lat="48.38231" lon="-0.05331">
        <ele>67</ele>
        <time>2018-09-22T10:09:29Z</time>
      </trkpt>
      <trkpt lat="48.38223" lon="-0.05319">
        <ele>71</ele>
        <time>2018-09-22T10:09:39Z</time>
      </trkpt>
      <trkpt lat="48.38203" lon="-0.0528">
        <ele>66</ele>
        <time>2018-09-22T10:10:10Z</time>
      </trkpt>
      <trkpt lat="48.38188" lon="-0.05261">
        <ele>65</ele>
        <time>2018-09-22T10:10:28Z</time>
      </trkpt>
      <trkpt lat="48.38178" lon="-0.05254">
        <ele>66</ele>
        <time>2018-09-22T10:10:36Z</time>
      </trkpt>
      <trkpt lat="48.38172" lon="-0.0525">
        <ele>67</ele>
        <time>2018-09-22T10:10:41Z</time>
      </trkpt>
      <trkpt lat="48.38159" lon="-0.05245">
        <ele>66</ele>
        <time>2018-09-22T10:10:53Z</time>
      </trkpt>
      <trkpt lat="48.38153" lon="-0.05244">
        <ele>65</ele>
        <time>2018-09-22T10:10:59Z</time>
      </trkpt>
      <trkpt lat="48.3815" lon="-0.05244">
        <ele>64</ele>
        <time>2018-09-22T10:11:02Z</time>
      </trkpt>
      <trkpt lat="48.38148" lon="-0.05245">
        <ele>64</ele>
        <time>2018-09-22T10:11:05Z</time>
      </trkpt>
      <trkpt lat="48.38142" lon="-0.05246">
        <ele>64</ele>
        <time>2018-09-22T10:11:12Z</time>
      </trkpt>
      <trkpt lat="48.38139" lon="-0.05248">
        <ele>64</ele>
        <time>2018-09-22T10:11:15Z</time>
      </trkpt>
      <trkpt lat="48.38125" lon="-0.05255">
        <ele>65</ele>
        <time>2018-09-22T10:11:26Z</time>
      </trkpt>
      <trkpt lat="48.38122" lon="-0.05257">
        <ele>66</ele>
        <time>2018-09-22T10:11:28Z</time>
      </trkpt>
      <trkpt lat="48.3812" lon="-0.05259">
        <ele>66</ele>
        <time>2018-09-22T10:11:30Z</time>
      </trkpt>
      <trkpt lat="48.381" lon="-0.0527">
        <ele>68</ele>
        <time>2018-09-22T10:11:49Z</time>
      </trkpt>
      <trkpt lat="48.38095" lon="-0.05272">
        <ele>67</ele>
        <time>2018-09-22T10:11:53Z</time>
      </trkpt>
      <trkpt lat="48.38077" lon="-0.05284">
        <ele>68</ele>
        <time>2018-09-22T10:12:11Z</time>
      </trkpt>
      <trkpt lat="48.38074" lon="-0.05286">
        <ele>68</ele>
        <time>2018-09-22T10:12:14Z</time>
      </trkpt>
      <trkpt lat="48.38072" lon="-0.05288">
        <ele>67</ele>
        <time>2018-09-22T10:12:16Z</time>
      </trkpt>
      <trkpt lat="48.38069" lon="-0.05293">
        <ele>67</ele>
        <time>2018-09-22T10:12:20Z</time>
      </trkpt>
      <trkpt lat="48.38065" lon="-0.0531">
        <ele>67</ele>
        <time>2018-09-22T10:12:31Z</time>
      </trkpt>
      <trkpt lat="48.38063" lon="-0.05317">
        <ele>68</ele>
        <time>2018-09-22T10:12:35Z</time>
      </trkpt>
      <trkpt lat="48.38063" lon="-0.0532">
        <ele>68</ele>
        <time>2018-09-22T10:12:37Z</time>
      </trkpt>
      <trkpt lat="48.38063" lon="-0.05323">
        <ele>69</ele>
        <time>2018-09-22T10:12:39Z</time>
      </trkpt>
      <trkpt lat="48.38062" lon="-0.05327">
        <ele>69</ele>
        <time>2018-09-22T10:12:41Z</time>
      </trkpt>
      <trkpt lat="48.38061" lon="-0.0533">
        <ele>69</ele>
        <time>2018-09-22T10:12:43Z</time>
      </trkpt>
      <trkpt lat="48.3806" lon="-0.05333">
        <ele>70</ele>
        <time>2018-09-22T10:12:45Z</time>
      </trkpt>
      <trkpt lat="48.38058" lon="-0.05336">
        <ele>70</ele>
        <time>2018-09-22T10:12:47Z</time>
      </trkpt>
      <trkpt lat="48.38056" lon="-0.05339">
        <ele>70</ele>
        <time>2018-09-22T10:12:49Z</time>
      </trkpt>
      <trkpt lat="48.3805" lon="-0.05346">
        <ele>70</ele>
        <time>2018-09-22T10:12:55Z</time>
      </trkpt>
      <trkpt lat="48.38042" lon="-0.05351">
        <ele>67</ele>
        <time>2018-09-22T10:14:14Z</time>
      </trkpt>
      <trkpt lat="48.38041" lon="-0.05352">
        <ele>67</ele>
        <time>2018-09-22T10:14:16Z</time>
      </trkpt>
      <trkpt lat="48.3804" lon="-0.05353">
        <ele>67</ele>
        <time>2018-09-22T10:14:18Z</time>
      </trkpt>
      <trkpt lat="48.38036" lon="-0.05353">
        <ele>67</ele>
        <time>2018-09-22T10:14:22Z</time>
      </trkpt>
      <trkpt lat="48.38035" lon="-0.05354">
        <ele>67</ele>
        <time>2018-09-22T10:14:25Z</time>
      </trkpt>
      <trkpt lat="48.38029" lon="-0.05356">
        <ele>66</ele>
        <time>2018-09-22T10:14:38Z</time>
      </trkpt>
      <trkpt lat="48.38027" lon="-0.05356">
        <ele>66</ele>
        <time>2018-09-22T10:14:41Z</time>
      </trkpt>
      <trkpt lat="48.38022" lon="-0.05357">
        <ele>66</ele>
        <time>2018-09-22T10:14:46Z</time>
      </trkpt>
      <trkpt lat="48.3802" lon="-0.05357">
        <ele>65</ele>
        <time>2018-09-22T10:14:49Z</time>
      </trkpt>
      <trkpt lat="48.38017" lon="-0.05356">
        <ele>64</ele>
        <time>2018-09-22T10:14:52Z</time>
      </trkpt>
      <trkpt lat="48.38015" lon="-0.05356">
        <ele>64</ele>
        <time>2018-09-22T10:14:55Z</time>
      </trkpt>
      <trkpt lat="48.38003" lon="-0.05358">
        <ele>63</ele>
        <time>2018-09-22T10:15:07Z</time>
      </trkpt>
      <trkpt lat="48.38001" lon="-0.05359">
        <ele>63</ele>
        <time>2018-09-22T10:15:09Z</time>
      </trkpt>
      <trkpt lat="48.37998" lon="-0.0536">
        <ele>63</ele>
        <time>2018-09-22T10:15:11Z</time>
      </trkpt>
      <trkpt lat="48.37984" lon="-0.05373">
        <ele>63</ele>
        <time>2018-09-22T10:15:43Z</time>
      </trkpt>
      <trkpt lat="48.37979" lon="-0.05377">
        <ele>63</ele>
        <time>2018-09-22T10:15:50Z</time>
      </trkpt>
      <trkpt lat="48.37978" lon="-0.05378">
        <ele>63</ele>
        <time>2018-09-22T10:15:53Z</time>
      </trkpt>
      <trkpt lat="48.37974" lon="-0.05382">
        <ele>64</ele>
        <time>2018-09-22T10:15:59Z</time>
      </trkpt>
      <trkpt lat="48.37968" lon="-0.05393">
        <ele>63</ele>
        <time>2018-09-22T10:16:11Z</time>
      </trkpt>
      <trkpt lat="48.37967" lon="-0.05396">
        <ele>63</ele>
        <time>2018-09-22T10:16:13Z</time>
      </trkpt>
      <trkpt lat="48.37965" lon="-0.05399">
        <ele>63</ele>
        <time>2018-09-22T10:16:16Z</time>
      </trkpt>
      <trkpt lat="48.37963" lon="-0.05401">
        <ele>63</ele>
        <time>2018-09-22T10:16:19Z</time>
      </trkpt>
      <trkpt lat="48.37961" lon="-0.05402">
        <ele>63</ele>
        <time>2018-09-22T10:16:21Z</time>
      </trkpt>
      <trkpt lat="48.3796" lon="-0.05403">
        <ele>63</ele>
        <time>2018-09-22T10:16:23Z</time>
      </trkpt>
      <trkpt lat="48.37957" lon="-0.05403">
        <ele>63</ele>
        <time>2018-09-22T10:16:26Z</time>
      </trkpt>
      <trkpt lat="48.37951" lon="-0.05405">
        <ele>62</ele>
        <time>2018-09-22T10:16:36Z</time>
      </trkpt>
      <trkpt lat="48.37949" lon="-0.05406">
        <ele>62</ele>
        <time>2018-09-22T10:16:38Z</time>
      </trkpt>
      <trkpt lat="48.37934" lon="-0.05414">
        <ele>63</ele>
        <time>2018-09-22T10:16:54Z</time>
      </trkpt>
      <trkpt lat="48.37928" lon="-0.0542">
        <ele>63</ele>
        <time>2018-09-22T10:17:03Z</time>
      </trkpt>
      <trkpt lat="48.3792" lon="-0.05424">
        <ele>62</ele>
        <time>2018-09-22T10:17:12Z</time>
      </trkpt>
      <trkpt lat="48.37919" lon="-0.05425">
        <ele>62</ele>
        <time>2018-09-22T10:17:14Z</time>
      </trkpt>
      <trkpt lat="48.3791" lon="-0.0543">
        <ele>62</ele>
        <time>2018-09-22T10:17:24Z</time>
      </trkpt>
    </trkseg>
  </trk>
</gpx>